<?xml version="1.0" encoding="UTF-8" standalone="no" ?>
<gpx xmlns="http://www.topografix.com/GPX/1/1" xmlns:xsi="http://www.w3.org/2001/XMLSchema-instance" xsi:schemaLocation="http://www.topografix.com/GPX/1/1 http://www.topografix.com/GPX/1/1/gpx.xsd" version="1.1" creator="VisuGPX - https://www.visugpx.com">
  <metadata>
    <name>Sagnes et Goudoulet rando du samedi 12 sept.2020</name>
    <desc><![CDATA[Randonnée au départ de Sagnes et Goudoulet le samedi 12 septembre 2020.]]></desc>
  </metadata>
  <trk>
    <name><![CDATA[2020-09-12 15-05-13]]></name>
    <trkseg>
      <trkpt lat="44.78991" lon="4.22534">
        <ele>1327.72</ele>
        <time>2020-09-12T07:26:20Z</time>
      </trkpt>
      <trkpt lat="44.78991" lon="4.22534">
        <ele>1327.72</ele>
        <time>2020-09-12T07:26:21Z</time>
      </trkpt>
      <trkpt lat="44.78998" lon="4.22521">
        <ele>1327.24</ele>
        <time>2020-09-12T07:26:52Z</time>
      </trkpt>
      <trkpt lat="44.79001" lon="4.22526">
        <ele>1327.72</ele>
        <time>2020-09-12T07:27:18Z</time>
      </trkpt>
      <trkpt lat="44.79004" lon="4.22528">
        <ele>1326.76</ele>
        <time>2020-09-12T07:27:52Z</time>
      </trkpt>
      <trkpt lat="44.79006" lon="4.2253">
        <ele>1326.76</ele>
        <time>2020-09-12T07:28:27Z</time>
      </trkpt>
      <trkpt lat="44.79003" lon="4.2253">
        <ele>1326.76</ele>
        <time>2020-09-12T07:29:20Z</time>
      </trkpt>
      <trkpt lat="44.79007" lon="4.22518">
        <ele>1326.76</ele>
        <time>2020-09-12T07:29:35Z</time>
      </trkpt>
      <trkpt lat="44.79005" lon="4.22515">
        <ele>1326.28</ele>
        <time>2020-09-12T07:29:53Z</time>
      </trkpt>
      <trkpt lat="44.79006" lon="4.22515">
        <ele>1326.76</ele>
        <time>2020-09-12T07:30:21Z</time>
      </trkpt>
      <trkpt lat="44.79001" lon="4.22517">
        <ele>1324.83</ele>
        <time>2020-09-12T07:30:38Z</time>
      </trkpt>
      <trkpt lat="44.79" lon="4.22517">
        <ele>1325.31</ele>
        <time>2020-09-12T07:31:11Z</time>
      </trkpt>
      <trkpt lat="44.79001" lon="4.22517">
        <ele>1325.31</ele>
        <time>2020-09-12T07:31:43Z</time>
      </trkpt>
      <trkpt lat="44.79001" lon="4.22518">
        <ele>1325.8</ele>
        <time>2020-09-12T07:32:40Z</time>
      </trkpt>
      <trkpt lat="44.79001" lon="4.22519">
        <ele>1325.8</ele>
        <time>2020-09-12T07:33:30Z</time>
      </trkpt>
      <trkpt lat="44.78996" lon="4.22524">
        <ele>1325.8</ele>
        <time>2020-09-12T07:33:54Z</time>
      </trkpt>
      <trkpt lat="44.79001" lon="4.22513">
        <ele>1325.8</ele>
        <time>2020-09-12T07:34:19Z</time>
      </trkpt>
      <trkpt lat="44.79001" lon="4.2252">
        <ele>1325.8</ele>
        <time>2020-09-12T07:34:47Z</time>
      </trkpt>
      <trkpt lat="44.79" lon="4.22525">
        <ele>1325.8</ele>
        <time>2020-09-12T07:35:23Z</time>
      </trkpt>
      <trkpt lat="44.78999" lon="4.22526">
        <ele>1325.8</ele>
        <time>2020-09-12T07:35:48Z</time>
      </trkpt>
      <trkpt lat="44.79" lon="4.22522">
        <ele>1325.8</ele>
        <time>2020-09-12T07:36:18Z</time>
      </trkpt>
      <trkpt lat="44.78994" lon="4.22512">
        <ele>1325.8</ele>
        <time>2020-09-12T07:36:42Z</time>
      </trkpt>
      <trkpt lat="44.78991" lon="4.22511">
        <ele>1325.8</ele>
        <time>2020-09-12T07:36:45Z</time>
      </trkpt>
      <trkpt lat="44.78986" lon="4.22505">
        <ele>1323.39</ele>
        <time>2020-09-12T07:37:02Z</time>
      </trkpt>
      <trkpt lat="44.78978" lon="4.2249">
        <ele>1320.51</ele>
        <time>2020-09-12T07:37:24Z</time>
      </trkpt>
      <trkpt lat="44.78976" lon="4.22472">
        <ele>1317.14</ele>
        <time>2020-09-12T07:37:42Z</time>
      </trkpt>
      <trkpt lat="44.78982" lon="4.22454">
        <ele>1314.74</ele>
        <time>2020-09-12T07:38:02Z</time>
      </trkpt>
      <trkpt lat="44.78999" lon="4.22443">
        <ele>1312.34</ele>
        <time>2020-09-12T07:38:26Z</time>
      </trkpt>
      <trkpt lat="44.79014" lon="4.22434">
        <ele>1310.9</ele>
        <time>2020-09-12T07:38:46Z</time>
      </trkpt>
      <trkpt lat="44.79015" lon="4.22404">
        <ele>1308.49</ele>
        <time>2020-09-12T07:39:08Z</time>
      </trkpt>
      <trkpt lat="44.79008" lon="4.22382">
        <ele>1308.01</ele>
        <time>2020-09-12T07:39:30Z</time>
      </trkpt>
      <trkpt lat="44.79005" lon="4.22363">
        <ele>1308.01</ele>
        <time>2020-09-12T07:39:48Z</time>
      </trkpt>
      <trkpt lat="44.79006" lon="4.22349">
        <ele>1307.53</ele>
        <time>2020-09-12T07:40:10Z</time>
      </trkpt>
      <trkpt lat="44.79005" lon="4.22355">
        <ele>1307.53</ele>
        <time>2020-09-12T07:40:24Z</time>
      </trkpt>
      <trkpt lat="44.79006" lon="4.22351">
        <ele>1307.05</ele>
        <time>2020-09-12T07:40:51Z</time>
      </trkpt>
      <trkpt lat="44.78998" lon="4.22326">
        <ele>1308.49</ele>
        <time>2020-09-12T07:41:14Z</time>
      </trkpt>
      <trkpt lat="44.78989" lon="4.22321">
        <ele>1308.97</ele>
        <time>2020-09-12T07:41:31Z</time>
      </trkpt>
      <trkpt lat="44.78981" lon="4.22317">
        <ele>1310.41</ele>
        <time>2020-09-12T07:41:43Z</time>
      </trkpt>
      <trkpt lat="44.78974" lon="4.22307">
        <ele>1310.41</ele>
        <time>2020-09-12T07:41:55Z</time>
      </trkpt>
      <trkpt lat="44.78969" lon="4.223">
        <ele>1310.41</ele>
        <time>2020-09-12T07:42:07Z</time>
      </trkpt>
      <trkpt lat="44.78954" lon="4.22282">
        <ele>1310.41</ele>
        <time>2020-09-12T07:42:23Z</time>
      </trkpt>
      <trkpt lat="44.78952" lon="4.22281">
        <ele>1310.41</ele>
        <time>2020-09-12T07:42:24Z</time>
      </trkpt>
      <trkpt lat="44.7894" lon="4.22271">
        <ele>1310.41</ele>
        <time>2020-09-12T07:42:37Z</time>
      </trkpt>
      <trkpt lat="44.78931" lon="4.22267">
        <ele>1311.38</ele>
        <time>2020-09-12T07:42:49Z</time>
      </trkpt>
      <trkpt lat="44.78922" lon="4.2226">
        <ele>1313.3</ele>
        <time>2020-09-12T07:43:01Z</time>
      </trkpt>
      <trkpt lat="44.78911" lon="4.22248">
        <ele>1315.7</ele>
        <time>2020-09-12T07:43:14Z</time>
      </trkpt>
      <trkpt lat="44.78894" lon="4.22237">
        <ele>1317.62</ele>
        <time>2020-09-12T07:43:33Z</time>
      </trkpt>
      <trkpt lat="44.7888" lon="4.22234">
        <ele>1320.03</ele>
        <time>2020-09-12T07:43:52Z</time>
      </trkpt>
      <trkpt lat="44.78869" lon="4.2223">
        <ele>1322.43</ele>
        <time>2020-09-12T07:44:08Z</time>
      </trkpt>
      <trkpt lat="44.7886" lon="4.22221">
        <ele>1325.31</ele>
        <time>2020-09-12T07:44:25Z</time>
      </trkpt>
      <trkpt lat="44.78843" lon="4.22206">
        <ele>1327.72</ele>
        <time>2020-09-12T07:44:47Z</time>
      </trkpt>
      <trkpt lat="44.78831" lon="4.22195">
        <ele>1330.12</ele>
        <time>2020-09-12T07:45:11Z</time>
      </trkpt>
      <trkpt lat="44.78826" lon="4.22185">
        <ele>1331.08</ele>
        <time>2020-09-12T07:45:19Z</time>
      </trkpt>
      <trkpt lat="44.78825" lon="4.22182">
        <ele>1330.6</ele>
        <time>2020-09-12T07:45:45Z</time>
      </trkpt>
      <trkpt lat="44.78825" lon="4.22182">
        <ele>1331.56</ele>
        <time>2020-09-12T07:46:11Z</time>
      </trkpt>
      <trkpt lat="44.78824" lon="4.22179">
        <ele>1331.56</ele>
        <time>2020-09-12T07:46:33Z</time>
      </trkpt>
      <trkpt lat="44.78823" lon="4.22179">
        <ele>1331.56</ele>
        <time>2020-09-12T07:46:59Z</time>
      </trkpt>
      <trkpt lat="44.78821" lon="4.2218">
        <ele>1331.56</ele>
        <time>2020-09-12T07:47:28Z</time>
      </trkpt>
      <trkpt lat="44.78818" lon="4.22177">
        <ele>1331.08</ele>
        <time>2020-09-12T07:47:52Z</time>
      </trkpt>
      <trkpt lat="44.78812" lon="4.22169">
        <ele>1331.08</ele>
        <time>2020-09-12T07:48:00Z</time>
      </trkpt>
      <trkpt lat="44.78807" lon="4.22151">
        <ele>1331.08</ele>
        <time>2020-09-12T07:48:16Z</time>
      </trkpt>
      <trkpt lat="44.788" lon="4.22136">
        <ele>1331.56</ele>
        <time>2020-09-12T07:48:32Z</time>
      </trkpt>
      <trkpt lat="44.78797" lon="4.22129">
        <ele>1331.08</ele>
        <time>2020-09-12T07:48:37Z</time>
      </trkpt>
      <trkpt lat="44.78785" lon="4.22109">
        <ele>1331.08</ele>
        <time>2020-09-12T07:48:55Z</time>
      </trkpt>
      <trkpt lat="44.78774" lon="4.22093">
        <ele>1332.04</ele>
        <time>2020-09-12T07:49:11Z</time>
      </trkpt>
      <trkpt lat="44.78771" lon="4.2209">
        <ele>1332.04</ele>
        <time>2020-09-12T07:49:14Z</time>
      </trkpt>
      <trkpt lat="44.78755" lon="4.22063">
        <ele>1333.01</ele>
        <time>2020-09-12T07:49:35Z</time>
      </trkpt>
      <trkpt lat="44.78743" lon="4.22035">
        <ele>1333.01</ele>
        <time>2020-09-12T07:49:54Z</time>
      </trkpt>
      <trkpt lat="44.7873" lon="4.22008">
        <ele>1331.56</ele>
        <time>2020-09-12T07:50:14Z</time>
      </trkpt>
      <trkpt lat="44.78716" lon="4.21987">
        <ele>1333.01</ele>
        <time>2020-09-12T07:50:31Z</time>
      </trkpt>
      <trkpt lat="44.78706" lon="4.21974">
        <ele>1333.97</ele>
        <time>2020-09-12T07:50:49Z</time>
      </trkpt>
      <trkpt lat="44.78697" lon="4.21967">
        <ele>1334.93</ele>
        <time>2020-09-12T07:51:07Z</time>
      </trkpt>
      <trkpt lat="44.78684" lon="4.21963">
        <ele>1335.89</ele>
        <time>2020-09-12T07:51:20Z</time>
      </trkpt>
      <trkpt lat="44.78665" lon="4.21941">
        <ele>1338.29</ele>
        <time>2020-09-12T07:51:44Z</time>
      </trkpt>
      <trkpt lat="44.78645" lon="4.21927">
        <ele>1340.7</ele>
        <time>2020-09-12T07:52:08Z</time>
      </trkpt>
      <trkpt lat="44.78643" lon="4.21926">
        <ele>1341.18</ele>
        <time>2020-09-12T07:52:11Z</time>
      </trkpt>
      <trkpt lat="44.78629" lon="4.21915">
        <ele>1344.06</ele>
        <time>2020-09-12T07:52:29Z</time>
      </trkpt>
      <trkpt lat="44.78622" lon="4.21902">
        <ele>1345.02</ele>
        <time>2020-09-12T07:52:49Z</time>
      </trkpt>
      <trkpt lat="44.78622" lon="4.21888">
        <ele>1345.98</ele>
        <time>2020-09-12T07:53:12Z</time>
      </trkpt>
      <trkpt lat="44.78622" lon="4.21889">
        <ele>1345.98</ele>
        <time>2020-09-12T07:53:40Z</time>
      </trkpt>
      <trkpt lat="44.78635" lon="4.21888">
        <ele>1345.5</ele>
        <time>2020-09-12T07:53:59Z</time>
      </trkpt>
      <trkpt lat="44.78657" lon="4.21891">
        <ele>1343.1</ele>
        <time>2020-09-12T07:54:18Z</time>
      </trkpt>
      <trkpt lat="44.78674" lon="4.21893">
        <ele>1341.66</ele>
        <time>2020-09-12T07:54:34Z</time>
      </trkpt>
      <trkpt lat="44.78693" lon="4.21896">
        <ele>1340.22</ele>
        <time>2020-09-12T07:54:50Z</time>
      </trkpt>
      <trkpt lat="44.787" lon="4.21901">
        <ele>1339.25</ele>
        <time>2020-09-12T07:54:56Z</time>
      </trkpt>
      <trkpt lat="44.78718" lon="4.2191">
        <ele>1339.25</ele>
        <time>2020-09-12T07:55:13Z</time>
      </trkpt>
      <trkpt lat="44.78736" lon="4.21917">
        <ele>1338.29</ele>
        <time>2020-09-12T07:55:30Z</time>
      </trkpt>
      <trkpt lat="44.78741" lon="4.2192">
        <ele>1338.29</ele>
        <time>2020-09-12T07:55:37Z</time>
      </trkpt>
      <trkpt lat="44.78743" lon="4.21921">
        <ele>1338.29</ele>
        <time>2020-09-12T07:55:39Z</time>
      </trkpt>
      <trkpt lat="44.78761" lon="4.21927">
        <ele>1337.81</ele>
        <time>2020-09-12T07:55:58Z</time>
      </trkpt>
      <trkpt lat="44.78771" lon="4.2195">
        <ele>1337.33</ele>
        <time>2020-09-12T07:56:15Z</time>
      </trkpt>
      <trkpt lat="44.78787" lon="4.21973">
        <ele>1337.81</ele>
        <time>2020-09-12T07:56:36Z</time>
      </trkpt>
      <trkpt lat="44.78807" lon="4.21991">
        <ele>1337.33</ele>
        <time>2020-09-12T07:56:57Z</time>
      </trkpt>
      <trkpt lat="44.78822" lon="4.22006">
        <ele>1337.33</ele>
        <time>2020-09-12T07:57:15Z</time>
      </trkpt>
      <trkpt lat="44.78836" lon="4.22019">
        <ele>1336.85</ele>
        <time>2020-09-12T07:57:31Z</time>
      </trkpt>
      <trkpt lat="44.78854" lon="4.22033">
        <ele>1336.85</ele>
        <time>2020-09-12T07:57:50Z</time>
      </trkpt>
      <trkpt lat="44.78871" lon="4.22042">
        <ele>1337.33</ele>
        <time>2020-09-12T07:58:07Z</time>
      </trkpt>
      <trkpt lat="44.78893" lon="4.22049">
        <ele>1337.81</ele>
        <time>2020-09-12T07:58:28Z</time>
      </trkpt>
      <trkpt lat="44.78905" lon="4.22055">
        <ele>1337.81</ele>
        <time>2020-09-12T07:58:44Z</time>
      </trkpt>
      <trkpt lat="44.78927" lon="4.22059">
        <ele>1338.77</ele>
        <time>2020-09-12T07:59:07Z</time>
      </trkpt>
      <trkpt lat="44.7894" lon="4.22057">
        <ele>1339.25</ele>
        <time>2020-09-12T07:59:24Z</time>
      </trkpt>
      <trkpt lat="44.78957" lon="4.22057">
        <ele>1340.22</ele>
        <time>2020-09-12T07:59:44Z</time>
      </trkpt>
      <trkpt lat="44.78963" lon="4.22061">
        <ele>1340.22</ele>
        <time>2020-09-12T08:00:04Z</time>
      </trkpt>
      <trkpt lat="44.78964" lon="4.22059">
        <ele>1340.22</ele>
        <time>2020-09-12T08:00:32Z</time>
      </trkpt>
      <trkpt lat="44.78963" lon="4.22058">
        <ele>1340.22</ele>
        <time>2020-09-12T08:00:59Z</time>
      </trkpt>
      <trkpt lat="44.78968" lon="4.22059">
        <ele>1340.22</ele>
        <time>2020-09-12T08:01:21Z</time>
      </trkpt>
      <trkpt lat="44.78978" lon="4.2206">
        <ele>1339.73</ele>
        <time>2020-09-12T08:01:39Z</time>
      </trkpt>
      <trkpt lat="44.78979" lon="4.2206">
        <ele>1339.73</ele>
        <time>2020-09-12T08:01:40Z</time>
      </trkpt>
      <trkpt lat="44.78987" lon="4.22054">
        <ele>1339.25</ele>
        <time>2020-09-12T08:01:50Z</time>
      </trkpt>
      <trkpt lat="44.79011" lon="4.2205">
        <ele>1339.25</ele>
        <time>2020-09-12T08:02:10Z</time>
      </trkpt>
      <trkpt lat="44.79032" lon="4.22048">
        <ele>1340.22</ele>
        <time>2020-09-12T08:02:31Z</time>
      </trkpt>
      <trkpt lat="44.79054" lon="4.22048">
        <ele>1340.22</ele>
        <time>2020-09-12T08:02:49Z</time>
      </trkpt>
      <trkpt lat="44.79068" lon="4.22046">
        <ele>1340.22</ele>
        <time>2020-09-12T08:03:09Z</time>
      </trkpt>
      <trkpt lat="44.79076" lon="4.22032">
        <ele>1340.22</ele>
        <time>2020-09-12T08:03:26Z</time>
      </trkpt>
      <trkpt lat="44.7909" lon="4.22009">
        <ele>1337.81</ele>
        <time>2020-09-12T08:03:47Z</time>
      </trkpt>
      <trkpt lat="44.79099" lon="4.21998">
        <ele>1336.85</ele>
        <time>2020-09-12T08:03:59Z</time>
      </trkpt>
      <trkpt lat="44.79117" lon="4.21982">
        <ele>1335.41</ele>
        <time>2020-09-12T08:04:18Z</time>
      </trkpt>
      <trkpt lat="44.79128" lon="4.21969">
        <ele>1334.93</ele>
        <time>2020-09-12T08:04:33Z</time>
      </trkpt>
      <trkpt lat="44.79138" lon="4.21951">
        <ele>1333.49</ele>
        <time>2020-09-12T08:04:50Z</time>
      </trkpt>
      <trkpt lat="44.79151" lon="4.21928">
        <ele>1333.49</ele>
        <time>2020-09-12T08:05:09Z</time>
      </trkpt>
      <trkpt lat="44.79169" lon="4.21912">
        <ele>1332.52</ele>
        <time>2020-09-12T08:05:29Z</time>
      </trkpt>
      <trkpt lat="44.79179" lon="4.2191">
        <ele>1333.49</ele>
        <time>2020-09-12T08:05:46Z</time>
      </trkpt>
      <trkpt lat="44.79188" lon="4.21926">
        <ele>1334.45</ele>
        <time>2020-09-12T08:06:07Z</time>
      </trkpt>
      <trkpt lat="44.79202" lon="4.21935">
        <ele>1337.81</ele>
        <time>2020-09-12T08:06:27Z</time>
      </trkpt>
      <trkpt lat="44.79208" lon="4.21946">
        <ele>1340.7</ele>
        <time>2020-09-12T08:06:41Z</time>
      </trkpt>
      <trkpt lat="44.79222" lon="4.21952">
        <ele>1342.14</ele>
        <time>2020-09-12T08:06:58Z</time>
      </trkpt>
      <trkpt lat="44.79238" lon="4.21965">
        <ele>1345.02</ele>
        <time>2020-09-12T08:07:19Z</time>
      </trkpt>
      <trkpt lat="44.79245" lon="4.21967">
        <ele>1345.5</ele>
        <time>2020-09-12T08:07:25Z</time>
      </trkpt>
      <trkpt lat="44.7926" lon="4.21985">
        <ele>1347.43</ele>
        <time>2020-09-12T08:07:44Z</time>
      </trkpt>
      <trkpt lat="44.79271" lon="4.21997">
        <ele>1349.35</ele>
        <time>2020-09-12T08:08:02Z</time>
      </trkpt>
      <trkpt lat="44.79285" lon="4.22001">
        <ele>1351.27</ele>
        <time>2020-09-12T08:08:24Z</time>
      </trkpt>
      <trkpt lat="44.79298" lon="4.22008">
        <ele>1352.71</ele>
        <time>2020-09-12T08:08:42Z</time>
      </trkpt>
      <trkpt lat="44.79313" lon="4.22015">
        <ele>1353.19</ele>
        <time>2020-09-12T08:08:56Z</time>
      </trkpt>
      <trkpt lat="44.79334" lon="4.22017">
        <ele>1353.19</ele>
        <time>2020-09-12T08:09:19Z</time>
      </trkpt>
      <trkpt lat="44.79356" lon="4.22003">
        <ele>1353.19</ele>
        <time>2020-09-12T08:09:41Z</time>
      </trkpt>
      <trkpt lat="44.79377" lon="4.22007">
        <ele>1351.75</ele>
        <time>2020-09-12T08:10:04Z</time>
      </trkpt>
      <trkpt lat="44.7938" lon="4.22008">
        <ele>1351.75</ele>
        <time>2020-09-12T08:10:06Z</time>
      </trkpt>
      <trkpt lat="44.79401" lon="4.22019">
        <ele>1350.31</ele>
        <time>2020-09-12T08:10:24Z</time>
      </trkpt>
      <trkpt lat="44.79419" lon="4.22033">
        <ele>1349.35</ele>
        <time>2020-09-12T08:10:42Z</time>
      </trkpt>
      <trkpt lat="44.7943" lon="4.22041">
        <ele>1348.39</ele>
        <time>2020-09-12T08:10:55Z</time>
      </trkpt>
      <trkpt lat="44.79447" lon="4.2205">
        <ele>1346.94</ele>
        <time>2020-09-12T08:11:14Z</time>
      </trkpt>
      <trkpt lat="44.79464" lon="4.22059">
        <ele>1345.98</ele>
        <time>2020-09-12T08:11:33Z</time>
      </trkpt>
      <trkpt lat="44.79482" lon="4.22069">
        <ele>1344.06</ele>
        <time>2020-09-12T08:11:50Z</time>
      </trkpt>
      <trkpt lat="44.795" lon="4.22075">
        <ele>1343.58</ele>
        <time>2020-09-12T08:12:06Z</time>
      </trkpt>
      <trkpt lat="44.79506" lon="4.22078">
        <ele>1344.06</ele>
        <time>2020-09-12T08:12:12Z</time>
      </trkpt>
      <trkpt lat="44.79527" lon="4.22086">
        <ele>1343.58</ele>
        <time>2020-09-12T08:12:32Z</time>
      </trkpt>
      <trkpt lat="44.79536" lon="4.22087">
        <ele>1343.1</ele>
        <time>2020-09-12T08:12:42Z</time>
      </trkpt>
      <trkpt lat="44.79552" lon="4.22095">
        <ele>1341.18</ele>
        <time>2020-09-12T08:13:00Z</time>
      </trkpt>
      <trkpt lat="44.79562" lon="4.221">
        <ele>1338.29</ele>
        <time>2020-09-12T08:13:16Z</time>
      </trkpt>
      <trkpt lat="44.79578" lon="4.22107">
        <ele>1335.41</ele>
        <time>2020-09-12T08:13:34Z</time>
      </trkpt>
      <trkpt lat="44.79588" lon="4.22114">
        <ele>1332.04</ele>
        <time>2020-09-12T08:13:57Z</time>
      </trkpt>
      <trkpt lat="44.79594" lon="4.22125">
        <ele>1329.16</ele>
        <time>2020-09-12T08:14:11Z</time>
      </trkpt>
      <trkpt lat="44.79598" lon="4.22138">
        <ele>1325.8</ele>
        <time>2020-09-12T08:14:23Z</time>
      </trkpt>
      <trkpt lat="44.79611" lon="4.22147">
        <ele>1322.43</ele>
        <time>2020-09-12T08:14:38Z</time>
      </trkpt>
      <trkpt lat="44.79612" lon="4.22147">
        <ele>1322.43</ele>
        <time>2020-09-12T08:14:39Z</time>
      </trkpt>
      <trkpt lat="44.79615" lon="4.22148">
        <ele>1321.47</ele>
        <time>2020-09-12T08:14:57Z</time>
      </trkpt>
      <trkpt lat="44.79616" lon="4.22149">
        <ele>1320.99</ele>
        <time>2020-09-12T08:14:59Z</time>
      </trkpt>
      <trkpt lat="44.79625" lon="4.22156">
        <ele>1320.99</ele>
        <time>2020-09-12T08:15:13Z</time>
      </trkpt>
      <trkpt lat="44.79628" lon="4.22163">
        <ele>1320.99</ele>
        <time>2020-09-12T08:15:19Z</time>
      </trkpt>
      <trkpt lat="44.79638" lon="4.22186">
        <ele>1321.47</ele>
        <time>2020-09-12T08:15:36Z</time>
      </trkpt>
      <trkpt lat="44.79648" lon="4.22194">
        <ele>1322.91</ele>
        <time>2020-09-12T08:15:51Z</time>
      </trkpt>
      <trkpt lat="44.79649" lon="4.22195">
        <ele>1322.91</ele>
        <time>2020-09-12T08:15:52Z</time>
      </trkpt>
      <trkpt lat="44.79653" lon="4.22199">
        <ele>1323.39</ele>
        <time>2020-09-12T08:15:57Z</time>
      </trkpt>
      <trkpt lat="44.79666" lon="4.22211">
        <ele>1325.8</ele>
        <time>2020-09-12T08:16:15Z</time>
      </trkpt>
      <trkpt lat="44.79671" lon="4.22224">
        <ele>1328.2</ele>
        <time>2020-09-12T08:16:25Z</time>
      </trkpt>
      <trkpt lat="44.7968" lon="4.22241">
        <ele>1331.56</ele>
        <time>2020-09-12T08:16:43Z</time>
      </trkpt>
      <trkpt lat="44.79687" lon="4.22249">
        <ele>1331.56</ele>
        <time>2020-09-12T08:16:56Z</time>
      </trkpt>
      <trkpt lat="44.79689" lon="4.2225">
        <ele>1331.56</ele>
        <time>2020-09-12T08:16:58Z</time>
      </trkpt>
      <trkpt lat="44.79693" lon="4.22251">
        <ele>1332.52</ele>
        <time>2020-09-12T08:17:02Z</time>
      </trkpt>
      <trkpt lat="44.79709" lon="4.22257">
        <ele>1333.01</ele>
        <time>2020-09-12T08:17:22Z</time>
      </trkpt>
      <trkpt lat="44.79708" lon="4.22256">
        <ele>1332.52</ele>
        <time>2020-09-12T08:17:49Z</time>
      </trkpt>
      <trkpt lat="44.79708" lon="4.22254">
        <ele>1332.52</ele>
        <time>2020-09-12T08:19:48Z</time>
      </trkpt>
      <trkpt lat="44.79709" lon="4.22256">
        <ele>1332.52</ele>
        <time>2020-09-12T08:20:21Z</time>
      </trkpt>
      <trkpt lat="44.79716" lon="4.22256">
        <ele>1332.52</ele>
        <time>2020-09-12T08:20:49Z</time>
      </trkpt>
      <trkpt lat="44.79719" lon="4.22253">
        <ele>1332.52</ele>
        <time>2020-09-12T08:20:53Z</time>
      </trkpt>
      <trkpt lat="44.79739" lon="4.22251">
        <ele>1332.52</ele>
        <time>2020-09-12T08:21:11Z</time>
      </trkpt>
      <trkpt lat="44.7976" lon="4.22263">
        <ele>1333.01</ele>
        <time>2020-09-12T08:21:30Z</time>
      </trkpt>
      <trkpt lat="44.79779" lon="4.22282">
        <ele>1334.93</ele>
        <time>2020-09-12T08:21:51Z</time>
      </trkpt>
      <trkpt lat="44.79794" lon="4.22299">
        <ele>1333.97</ele>
        <time>2020-09-12T08:22:09Z</time>
      </trkpt>
      <trkpt lat="44.79811" lon="4.22319">
        <ele>1332.52</ele>
        <time>2020-09-12T08:22:28Z</time>
      </trkpt>
      <trkpt lat="44.79835" lon="4.2234">
        <ele>1330.6</ele>
        <time>2020-09-12T08:22:51Z</time>
      </trkpt>
      <trkpt lat="44.79837" lon="4.22342">
        <ele>1330.6</ele>
        <time>2020-09-12T08:22:53Z</time>
      </trkpt>
      <trkpt lat="44.7984" lon="4.22344">
        <ele>1331.08</ele>
        <time>2020-09-12T08:22:56Z</time>
      </trkpt>
      <trkpt lat="44.79861" lon="4.22357">
        <ele>1332.04</ele>
        <time>2020-09-12T08:23:15Z</time>
      </trkpt>
      <trkpt lat="44.79873" lon="4.22375">
        <ele>1330.6</ele>
        <time>2020-09-12T08:23:30Z</time>
      </trkpt>
      <trkpt lat="44.79886" lon="4.22396">
        <ele>1333.01</ele>
        <time>2020-09-12T08:23:47Z</time>
      </trkpt>
      <trkpt lat="44.799" lon="4.22425">
        <ele>1333.01</ele>
        <time>2020-09-12T08:24:07Z</time>
      </trkpt>
      <trkpt lat="44.79908" lon="4.22447">
        <ele>1333.49</ele>
        <time>2020-09-12T08:24:25Z</time>
      </trkpt>
      <trkpt lat="44.79919" lon="4.22468">
        <ele>1333.97</ele>
        <time>2020-09-12T08:24:43Z</time>
      </trkpt>
      <trkpt lat="44.7993" lon="4.22492">
        <ele>1334.45</ele>
        <time>2020-09-12T08:25:01Z</time>
      </trkpt>
      <trkpt lat="44.79931" lon="4.22496">
        <ele>1334.45</ele>
        <time>2020-09-12T08:25:04Z</time>
      </trkpt>
      <trkpt lat="44.79944" lon="4.22522">
        <ele>1334.93</ele>
        <time>2020-09-12T08:25:24Z</time>
      </trkpt>
      <trkpt lat="44.79951" lon="4.22552">
        <ele>1334.93</ele>
        <time>2020-09-12T08:25:43Z</time>
      </trkpt>
      <trkpt lat="44.79965" lon="4.22571">
        <ele>1333.97</ele>
        <time>2020-09-12T08:26:00Z</time>
      </trkpt>
      <trkpt lat="44.7998" lon="4.22589">
        <ele>1333.49</ele>
        <time>2020-09-12T08:26:17Z</time>
      </trkpt>
      <trkpt lat="44.79993" lon="4.22606">
        <ele>1333.01</ele>
        <time>2020-09-12T08:26:32Z</time>
      </trkpt>
      <trkpt lat="44.8001" lon="4.22631">
        <ele>1333.97</ele>
        <time>2020-09-12T08:26:53Z</time>
      </trkpt>
      <trkpt lat="44.80015" lon="4.22641">
        <ele>1333.97</ele>
        <time>2020-09-12T08:27:01Z</time>
      </trkpt>
      <trkpt lat="44.80026" lon="4.22656">
        <ele>1334.93</ele>
        <time>2020-09-12T08:27:16Z</time>
      </trkpt>
      <trkpt lat="44.80041" lon="4.22664">
        <ele>1336.37</ele>
        <time>2020-09-12T08:27:32Z</time>
      </trkpt>
      <trkpt lat="44.80041" lon="4.22663">
        <ele>1338.77</ele>
        <time>2020-09-12T08:27:50Z</time>
      </trkpt>
      <trkpt lat="44.80034" lon="4.22672">
        <ele>1336.85</ele>
        <time>2020-09-12T08:28:08Z</time>
      </trkpt>
      <trkpt lat="44.80035" lon="4.22673">
        <ele>1336.85</ele>
        <time>2020-09-12T08:28:09Z</time>
      </trkpt>
      <trkpt lat="44.80047" lon="4.22682">
        <ele>1337.81</ele>
        <time>2020-09-12T08:28:27Z</time>
      </trkpt>
      <trkpt lat="44.80055" lon="4.22675">
        <ele>1339.25</ele>
        <time>2020-09-12T08:28:45Z</time>
      </trkpt>
      <trkpt lat="44.80064" lon="4.2267">
        <ele>1339.25</ele>
        <time>2020-09-12T08:28:53Z</time>
      </trkpt>
      <trkpt lat="44.80082" lon="4.22663">
        <ele>1341.18</ele>
        <time>2020-09-12T08:29:09Z</time>
      </trkpt>
      <trkpt lat="44.80088" lon="4.22661">
        <ele>1342.14</ele>
        <time>2020-09-12T08:29:15Z</time>
      </trkpt>
      <trkpt lat="44.80102" lon="4.22657">
        <ele>1342.62</ele>
        <time>2020-09-12T08:29:28Z</time>
      </trkpt>
      <trkpt lat="44.8012" lon="4.22659">
        <ele>1341.66</ele>
        <time>2020-09-12T08:29:44Z</time>
      </trkpt>
      <trkpt lat="44.80131" lon="4.22666">
        <ele>1344.06</ele>
        <time>2020-09-12T08:29:57Z</time>
      </trkpt>
      <trkpt lat="44.80148" lon="4.22677">
        <ele>1344.54</ele>
        <time>2020-09-12T08:30:13Z</time>
      </trkpt>
      <trkpt lat="44.80167" lon="4.22684">
        <ele>1345.02</ele>
        <time>2020-09-12T08:30:31Z</time>
      </trkpt>
      <trkpt lat="44.80187" lon="4.22691">
        <ele>1345.98</ele>
        <time>2020-09-12T08:30:49Z</time>
      </trkpt>
      <trkpt lat="44.80208" lon="4.22697">
        <ele>1345.98</ele>
        <time>2020-09-12T08:31:07Z</time>
      </trkpt>
      <trkpt lat="44.80226" lon="4.22703">
        <ele>1347.91</ele>
        <time>2020-09-12T08:31:26Z</time>
      </trkpt>
      <trkpt lat="44.80244" lon="4.22708">
        <ele>1349.83</ele>
        <time>2020-09-12T08:31:43Z</time>
      </trkpt>
      <trkpt lat="44.80263" lon="4.22713">
        <ele>1351.27</ele>
        <time>2020-09-12T08:32:01Z</time>
      </trkpt>
      <trkpt lat="44.80278" lon="4.22714">
        <ele>1352.23</ele>
        <time>2020-09-12T08:32:17Z</time>
      </trkpt>
      <trkpt lat="44.80284" lon="4.22717">
        <ele>1352.23</ele>
        <time>2020-09-12T08:32:22Z</time>
      </trkpt>
      <trkpt lat="44.80306" lon="4.22721">
        <ele>1352.23</ele>
        <time>2020-09-12T08:32:42Z</time>
      </trkpt>
      <trkpt lat="44.80325" lon="4.22728">
        <ele>1350.79</ele>
        <time>2020-09-12T08:33:01Z</time>
      </trkpt>
      <trkpt lat="44.80341" lon="4.2273">
        <ele>1350.79</ele>
        <time>2020-09-12T08:33:18Z</time>
      </trkpt>
      <trkpt lat="44.80345" lon="4.22733">
        <ele>1350.79</ele>
        <time>2020-09-12T08:33:38Z</time>
      </trkpt>
      <trkpt lat="44.80345" lon="4.22732">
        <ele>1350.79</ele>
        <time>2020-09-12T08:34:06Z</time>
      </trkpt>
      <trkpt lat="44.80344" lon="4.22732">
        <ele>1350.79</ele>
        <time>2020-09-12T08:34:28Z</time>
      </trkpt>
      <trkpt lat="44.80344" lon="4.22732">
        <ele>1350.79</ele>
        <time>2020-09-12T08:35:00Z</time>
      </trkpt>
      <trkpt lat="44.80344" lon="4.22733">
        <ele>1350.79</ele>
        <time>2020-09-12T08:35:30Z</time>
      </trkpt>
      <trkpt lat="44.80344" lon="4.22732">
        <ele>1350.79</ele>
        <time>2020-09-12T08:36:12Z</time>
      </trkpt>
      <trkpt lat="44.80343" lon="4.22732">
        <ele>1350.79</ele>
        <time>2020-09-12T08:36:49Z</time>
      </trkpt>
      <trkpt lat="44.80345" lon="4.22732">
        <ele>1350.79</ele>
        <time>2020-09-12T08:37:23Z</time>
      </trkpt>
      <trkpt lat="44.80343" lon="4.22732">
        <ele>1350.79</ele>
        <time>2020-09-12T08:37:57Z</time>
      </trkpt>
      <trkpt lat="44.80342" lon="4.22732">
        <ele>1350.79</ele>
        <time>2020-09-12T08:38:39Z</time>
      </trkpt>
      <trkpt lat="44.80345" lon="4.22732">
        <ele>1350.79</ele>
        <time>2020-09-12T08:38:45Z</time>
      </trkpt>
      <trkpt lat="44.80367" lon="4.22736">
        <ele>1349.83</ele>
        <time>2020-09-12T08:39:04Z</time>
      </trkpt>
      <trkpt lat="44.80388" lon="4.22736">
        <ele>1350.31</ele>
        <time>2020-09-12T08:39:22Z</time>
      </trkpt>
      <trkpt lat="44.80389" lon="4.22736">
        <ele>1350.31</ele>
        <time>2020-09-12T08:39:23Z</time>
      </trkpt>
      <trkpt lat="44.80401" lon="4.22736">
        <ele>1350.31</ele>
        <time>2020-09-12T08:39:35Z</time>
      </trkpt>
      <trkpt lat="44.8042" lon="4.22744">
        <ele>1351.75</ele>
        <time>2020-09-12T08:39:54Z</time>
      </trkpt>
      <trkpt lat="44.80438" lon="4.22752">
        <ele>1352.23</ele>
        <time>2020-09-12T08:40:12Z</time>
      </trkpt>
      <trkpt lat="44.80458" lon="4.22759">
        <ele>1354.15</ele>
        <time>2020-09-12T08:40:30Z</time>
      </trkpt>
      <trkpt lat="44.80475" lon="4.22766">
        <ele>1355.12</ele>
        <time>2020-09-12T08:40:46Z</time>
      </trkpt>
      <trkpt lat="44.80492" lon="4.22766">
        <ele>1355.6</ele>
        <time>2020-09-12T08:41:04Z</time>
      </trkpt>
      <trkpt lat="44.8051" lon="4.22768">
        <ele>1357.04</ele>
        <time>2020-09-12T08:41:21Z</time>
      </trkpt>
      <trkpt lat="44.80528" lon="4.22768">
        <ele>1358</ele>
        <time>2020-09-12T08:41:39Z</time>
      </trkpt>
      <trkpt lat="44.80534" lon="4.22767">
        <ele>1358.48</ele>
        <time>2020-09-12T08:41:44Z</time>
      </trkpt>
      <trkpt lat="44.80549" lon="4.22764">
        <ele>1358.96</ele>
        <time>2020-09-12T08:42:01Z</time>
      </trkpt>
      <trkpt lat="44.80566" lon="4.22765">
        <ele>1361.36</ele>
        <time>2020-09-12T08:42:19Z</time>
      </trkpt>
      <trkpt lat="44.8058" lon="4.22772">
        <ele>1361.84</ele>
        <time>2020-09-12T08:42:35Z</time>
      </trkpt>
      <trkpt lat="44.80595" lon="4.22764">
        <ele>1363.29</ele>
        <time>2020-09-12T08:42:52Z</time>
      </trkpt>
      <trkpt lat="44.80611" lon="4.22756">
        <ele>1365.21</ele>
        <time>2020-09-12T08:43:09Z</time>
      </trkpt>
      <trkpt lat="44.80626" lon="4.22749">
        <ele>1367.13</ele>
        <time>2020-09-12T08:43:27Z</time>
      </trkpt>
      <trkpt lat="44.80643" lon="4.22745">
        <ele>1368.57</ele>
        <time>2020-09-12T08:43:45Z</time>
      </trkpt>
      <trkpt lat="44.80665" lon="4.2274">
        <ele>1370.5</ele>
        <time>2020-09-12T08:44:06Z</time>
      </trkpt>
      <trkpt lat="44.80674" lon="4.22735">
        <ele>1371.46</ele>
        <time>2020-09-12T08:44:17Z</time>
      </trkpt>
      <trkpt lat="44.80676" lon="4.22734">
        <ele>1371.94</ele>
        <time>2020-09-12T08:44:19Z</time>
      </trkpt>
      <trkpt lat="44.80693" lon="4.22728">
        <ele>1373.86</ele>
        <time>2020-09-12T08:44:39Z</time>
      </trkpt>
      <trkpt lat="44.80711" lon="4.22718">
        <ele>1376.75</ele>
        <time>2020-09-12T08:45:01Z</time>
      </trkpt>
      <trkpt lat="44.80725" lon="4.22708">
        <ele>1379.63</ele>
        <time>2020-09-12T08:45:20Z</time>
      </trkpt>
      <trkpt lat="44.80737" lon="4.22709">
        <ele>1382.03</ele>
        <time>2020-09-12T08:45:41Z</time>
      </trkpt>
      <trkpt lat="44.80737" lon="4.22708">
        <ele>1382.03</ele>
        <time>2020-09-12T08:46:15Z</time>
      </trkpt>
      <trkpt lat="44.80738" lon="4.22708">
        <ele>1382.03</ele>
        <time>2020-09-12T08:46:51Z</time>
      </trkpt>
      <trkpt lat="44.80736" lon="4.22708">
        <ele>1382.03</ele>
        <time>2020-09-12T08:47:15Z</time>
      </trkpt>
      <trkpt lat="44.80735" lon="4.22707">
        <ele>1382.03</ele>
        <time>2020-09-12T08:47:46Z</time>
      </trkpt>
      <trkpt lat="44.80735" lon="4.22707">
        <ele>1382.03</ele>
        <time>2020-09-12T08:48:20Z</time>
      </trkpt>
      <trkpt lat="44.80735" lon="4.22708">
        <ele>1382.03</ele>
        <time>2020-09-12T08:48:52Z</time>
      </trkpt>
      <trkpt lat="44.80735" lon="4.22708">
        <ele>1382.03</ele>
        <time>2020-09-12T08:49:19Z</time>
      </trkpt>
      <trkpt lat="44.80736" lon="4.22708">
        <ele>1382.03</ele>
        <time>2020-09-12T08:49:46Z</time>
      </trkpt>
      <trkpt lat="44.80736" lon="4.22709">
        <ele>1382.03</ele>
        <time>2020-09-12T08:50:14Z</time>
      </trkpt>
      <trkpt lat="44.80736" lon="4.2271">
        <ele>1382.03</ele>
        <time>2020-09-12T08:50:41Z</time>
      </trkpt>
      <trkpt lat="44.80736" lon="4.22709">
        <ele>1382.03</ele>
        <time>2020-09-12T08:51:06Z</time>
      </trkpt>
      <trkpt lat="44.80741" lon="4.22709">
        <ele>1382.03</ele>
        <time>2020-09-12T08:51:36Z</time>
      </trkpt>
      <trkpt lat="44.80745" lon="4.22707">
        <ele>1382.03</ele>
        <time>2020-09-12T08:51:39Z</time>
      </trkpt>
      <trkpt lat="44.80758" lon="4.22699">
        <ele>1383.47</ele>
        <time>2020-09-12T08:51:55Z</time>
      </trkpt>
      <trkpt lat="44.80777" lon="4.22687">
        <ele>1384.92</ele>
        <time>2020-09-12T08:52:16Z</time>
      </trkpt>
      <trkpt lat="44.80794" lon="4.22675">
        <ele>1386.36</ele>
        <time>2020-09-12T08:52:40Z</time>
      </trkpt>
      <trkpt lat="44.80812" lon="4.22662">
        <ele>1388.76</ele>
        <time>2020-09-12T08:53:00Z</time>
      </trkpt>
      <trkpt lat="44.80834" lon="4.22646">
        <ele>1391.17</ele>
        <time>2020-09-12T08:53:27Z</time>
      </trkpt>
      <trkpt lat="44.80853" lon="4.2263">
        <ele>1393.57</ele>
        <time>2020-09-12T08:53:55Z</time>
      </trkpt>
      <trkpt lat="44.8087" lon="4.2262">
        <ele>1396.45</ele>
        <time>2020-09-12T08:54:12Z</time>
      </trkpt>
      <trkpt lat="44.80885" lon="4.22607">
        <ele>1398.37</ele>
        <time>2020-09-12T08:54:30Z</time>
      </trkpt>
      <trkpt lat="44.80893" lon="4.22599">
        <ele>1401.26</ele>
        <time>2020-09-12T08:54:45Z</time>
      </trkpt>
      <trkpt lat="44.80897" lon="4.22601">
        <ele>1401.26</ele>
        <time>2020-09-12T08:54:49Z</time>
      </trkpt>
      <trkpt lat="44.8091" lon="4.22603">
        <ele>1401.74</ele>
        <time>2020-09-12T08:55:05Z</time>
      </trkpt>
      <trkpt lat="44.8091" lon="4.226">
        <ele>1401.74</ele>
        <time>2020-09-12T08:55:35Z</time>
      </trkpt>
      <trkpt lat="44.8091" lon="4.226">
        <ele>1401.74</ele>
        <time>2020-09-12T08:56:04Z</time>
      </trkpt>
      <trkpt lat="44.80911" lon="4.22599">
        <ele>1401.74</ele>
        <time>2020-09-12T08:56:28Z</time>
      </trkpt>
      <trkpt lat="44.80922" lon="4.22585">
        <ele>1401.74</ele>
        <time>2020-09-12T08:56:48Z</time>
      </trkpt>
      <trkpt lat="44.80924" lon="4.22583">
        <ele>1401.74</ele>
        <time>2020-09-12T08:56:51Z</time>
      </trkpt>
      <trkpt lat="44.80931" lon="4.22577">
        <ele>1405.1</ele>
        <time>2020-09-12T08:57:03Z</time>
      </trkpt>
      <trkpt lat="44.80952" lon="4.22572">
        <ele>1407.51</ele>
        <time>2020-09-12T08:57:25Z</time>
      </trkpt>
      <trkpt lat="44.8097" lon="4.2256">
        <ele>1409.91</ele>
        <time>2020-09-12T08:57:47Z</time>
      </trkpt>
      <trkpt lat="44.80977" lon="4.2254">
        <ele>1412.79</ele>
        <time>2020-09-12T08:58:07Z</time>
      </trkpt>
      <trkpt lat="44.80978" lon="4.22527">
        <ele>1414.24</ele>
        <time>2020-09-12T08:58:27Z</time>
      </trkpt>
      <trkpt lat="44.80977" lon="4.22528">
        <ele>1414.24</ele>
        <time>2020-09-12T08:58:51Z</time>
      </trkpt>
      <trkpt lat="44.80975" lon="4.22532">
        <ele>1414.24</ele>
        <time>2020-09-12T08:59:29Z</time>
      </trkpt>
      <trkpt lat="44.80977" lon="4.2252">
        <ele>1414.24</ele>
        <time>2020-09-12T09:00:16Z</time>
      </trkpt>
      <trkpt lat="44.80978" lon="4.22503">
        <ele>1416.16</ele>
        <time>2020-09-12T09:00:33Z</time>
      </trkpt>
      <trkpt lat="44.80983" lon="4.22494">
        <ele>1417.12</ele>
        <time>2020-09-12T09:00:53Z</time>
      </trkpt>
      <trkpt lat="44.80993" lon="4.22494">
        <ele>1418.56</ele>
        <time>2020-09-12T09:01:06Z</time>
      </trkpt>
      <trkpt lat="44.81005" lon="4.22491">
        <ele>1420.97</ele>
        <time>2020-09-12T09:01:24Z</time>
      </trkpt>
      <trkpt lat="44.81006" lon="4.22477">
        <ele>1420.49</ele>
        <time>2020-09-12T09:01:42Z</time>
      </trkpt>
      <trkpt lat="44.81013" lon="4.22467">
        <ele>1423.85</ele>
        <time>2020-09-12T09:01:56Z</time>
      </trkpt>
      <trkpt lat="44.81014" lon="4.22465">
        <ele>1424.33</ele>
        <time>2020-09-12T09:01:58Z</time>
      </trkpt>
      <trkpt lat="44.8102" lon="4.22448">
        <ele>1427.7</ele>
        <time>2020-09-12T09:02:15Z</time>
      </trkpt>
      <trkpt lat="44.81031" lon="4.22426">
        <ele>1430.58</ele>
        <time>2020-09-12T09:02:39Z</time>
      </trkpt>
      <trkpt lat="44.81033" lon="4.22423">
        <ele>1432.02</ele>
        <time>2020-09-12T09:03:03Z</time>
      </trkpt>
      <trkpt lat="44.81032" lon="4.22425">
        <ele>1432.02</ele>
        <time>2020-09-12T09:03:30Z</time>
      </trkpt>
      <trkpt lat="44.81031" lon="4.22426">
        <ele>1432.02</ele>
        <time>2020-09-12T09:03:59Z</time>
      </trkpt>
      <trkpt lat="44.81032" lon="4.22425">
        <ele>1432.02</ele>
        <time>2020-09-12T09:04:25Z</time>
      </trkpt>
      <trkpt lat="44.81032" lon="4.22425">
        <ele>1431.54</ele>
        <time>2020-09-12T09:05:17Z</time>
      </trkpt>
      <trkpt lat="44.81036" lon="4.2241">
        <ele>1432.98</ele>
        <time>2020-09-12T09:05:35Z</time>
      </trkpt>
      <trkpt lat="44.81043" lon="4.22392">
        <ele>1433.94</ele>
        <time>2020-09-12T09:05:53Z</time>
      </trkpt>
      <trkpt lat="44.81055" lon="4.22383">
        <ele>1435.87</ele>
        <time>2020-09-12T09:06:12Z</time>
      </trkpt>
      <trkpt lat="44.8106" lon="4.22375">
        <ele>1437.79</ele>
        <time>2020-09-12T09:06:34Z</time>
      </trkpt>
      <trkpt lat="44.81061" lon="4.22373">
        <ele>1437.79</ele>
        <time>2020-09-12T09:06:42Z</time>
      </trkpt>
      <trkpt lat="44.81066" lon="4.22356">
        <ele>1438.75</ele>
        <time>2020-09-12T09:06:58Z</time>
      </trkpt>
      <trkpt lat="44.81082" lon="4.22346">
        <ele>1440.67</ele>
        <time>2020-09-12T09:07:19Z</time>
      </trkpt>
      <trkpt lat="44.81093" lon="4.22333">
        <ele>1444.04</ele>
        <time>2020-09-12T09:07:39Z</time>
      </trkpt>
      <trkpt lat="44.81107" lon="4.22324">
        <ele>1446.92</ele>
        <time>2020-09-12T09:07:57Z</time>
      </trkpt>
      <trkpt lat="44.8112" lon="4.22319">
        <ele>1449.81</ele>
        <time>2020-09-12T09:08:14Z</time>
      </trkpt>
      <trkpt lat="44.8113" lon="4.22313">
        <ele>1452.69</ele>
        <time>2020-09-12T09:08:33Z</time>
      </trkpt>
      <trkpt lat="44.81137" lon="4.22309">
        <ele>1454.61</ele>
        <time>2020-09-12T09:08:53Z</time>
      </trkpt>
      <trkpt lat="44.81138" lon="4.22309">
        <ele>1454.61</ele>
        <time>2020-09-12T09:09:18Z</time>
      </trkpt>
      <trkpt lat="44.81139" lon="4.22308">
        <ele>1454.61</ele>
        <time>2020-09-12T09:09:46Z</time>
      </trkpt>
      <trkpt lat="44.8114" lon="4.2231">
        <ele>1454.61</ele>
        <time>2020-09-12T09:10:11Z</time>
      </trkpt>
      <trkpt lat="44.81146" lon="4.22314">
        <ele>1456.05</ele>
        <time>2020-09-12T09:10:32Z</time>
      </trkpt>
      <trkpt lat="44.81158" lon="4.22315">
        <ele>1457.98</ele>
        <time>2020-09-12T09:10:51Z</time>
      </trkpt>
      <trkpt lat="44.81167" lon="4.2231">
        <ele>1459.42</ele>
        <time>2020-09-12T09:11:06Z</time>
      </trkpt>
      <trkpt lat="44.8118" lon="4.22304">
        <ele>1461.34</ele>
        <time>2020-09-12T09:11:30Z</time>
      </trkpt>
      <trkpt lat="44.81194" lon="4.22299">
        <ele>1464.23</ele>
        <time>2020-09-12T09:11:51Z</time>
      </trkpt>
      <trkpt lat="44.81209" lon="4.22298">
        <ele>1467.11</ele>
        <time>2020-09-12T09:12:08Z</time>
      </trkpt>
      <trkpt lat="44.81223" lon="4.22296">
        <ele>1469.99</ele>
        <time>2020-09-12T09:12:25Z</time>
      </trkpt>
      <trkpt lat="44.81238" lon="4.22297">
        <ele>1473.36</ele>
        <time>2020-09-12T09:12:45Z</time>
      </trkpt>
      <trkpt lat="44.81256" lon="4.22297">
        <ele>1476.24</ele>
        <time>2020-09-12T09:13:05Z</time>
      </trkpt>
      <trkpt lat="44.8127" lon="4.223">
        <ele>1479.13</ele>
        <time>2020-09-12T09:13:27Z</time>
      </trkpt>
      <trkpt lat="44.81279" lon="4.22299">
        <ele>1481.53</ele>
        <time>2020-09-12T09:13:46Z</time>
      </trkpt>
      <trkpt lat="44.81301" lon="4.22296">
        <ele>1484.41</ele>
        <time>2020-09-12T09:14:09Z</time>
      </trkpt>
      <trkpt lat="44.81317" lon="4.22302">
        <ele>1486.82</ele>
        <time>2020-09-12T09:14:30Z</time>
      </trkpt>
      <trkpt lat="44.81328" lon="4.2231">
        <ele>1487.78</ele>
        <time>2020-09-12T09:14:47Z</time>
      </trkpt>
      <trkpt lat="44.81337" lon="4.22317">
        <ele>1489.22</ele>
        <time>2020-09-12T09:15:03Z</time>
      </trkpt>
      <trkpt lat="44.81356" lon="4.22326">
        <ele>1490.66</ele>
        <time>2020-09-12T09:15:22Z</time>
      </trkpt>
      <trkpt lat="44.81358" lon="4.22326">
        <ele>1491.14</ele>
        <time>2020-09-12T09:15:24Z</time>
      </trkpt>
      <trkpt lat="44.81375" lon="4.22336">
        <ele>1492.58</ele>
        <time>2020-09-12T09:15:42Z</time>
      </trkpt>
      <trkpt lat="44.81388" lon="4.2234">
        <ele>1494.51</ele>
        <time>2020-09-12T09:15:55Z</time>
      </trkpt>
      <trkpt lat="44.81404" lon="4.22349">
        <ele>1495.95</ele>
        <time>2020-09-12T09:16:14Z</time>
      </trkpt>
      <trkpt lat="44.81415" lon="4.22351">
        <ele>1497.39</ele>
        <time>2020-09-12T09:16:26Z</time>
      </trkpt>
      <trkpt lat="44.81437" lon="4.22361">
        <ele>1499.79</ele>
        <time>2020-09-12T09:16:48Z</time>
      </trkpt>
      <trkpt lat="44.81453" lon="4.22364">
        <ele>1501.72</ele>
        <time>2020-09-12T09:17:10Z</time>
      </trkpt>
      <trkpt lat="44.81477" lon="4.22369">
        <ele>1504.6</ele>
        <time>2020-09-12T09:17:32Z</time>
      </trkpt>
      <trkpt lat="44.81496" lon="4.22367">
        <ele>1506.52</ele>
        <time>2020-09-12T09:17:51Z</time>
      </trkpt>
      <trkpt lat="44.81506" lon="4.22365">
        <ele>1508.93</ele>
        <time>2020-09-12T09:18:11Z</time>
      </trkpt>
      <trkpt lat="44.8151" lon="4.22363">
        <ele>1508.45</ele>
        <time>2020-09-12T09:18:35Z</time>
      </trkpt>
      <trkpt lat="44.81508" lon="4.22363">
        <ele>1507.48</ele>
        <time>2020-09-12T09:19:02Z</time>
      </trkpt>
      <trkpt lat="44.81511" lon="4.22365">
        <ele>1507.97</ele>
        <time>2020-09-12T09:21:38Z</time>
      </trkpt>
      <trkpt lat="44.81511" lon="4.22363">
        <ele>1507.97</ele>
        <time>2020-09-12T09:23:38Z</time>
      </trkpt>
      <trkpt lat="44.81508" lon="4.22364">
        <ele>1507.97</ele>
        <time>2020-09-12T09:24:21Z</time>
      </trkpt>
      <trkpt lat="44.81509" lon="4.22366">
        <ele>1507.97</ele>
        <time>2020-09-12T09:24:51Z</time>
      </trkpt>
      <trkpt lat="44.81505" lon="4.22367">
        <ele>1507.97</ele>
        <time>2020-09-12T09:25:25Z</time>
      </trkpt>
      <trkpt lat="44.81507" lon="4.22366">
        <ele>1507.97</ele>
        <time>2020-09-12T09:25:53Z</time>
      </trkpt>
      <trkpt lat="44.81507" lon="4.22366">
        <ele>1507.97</ele>
        <time>2020-09-12T09:26:24Z</time>
      </trkpt>
      <trkpt lat="44.81506" lon="4.22365">
        <ele>1507.97</ele>
        <time>2020-09-12T09:27:05Z</time>
      </trkpt>
      <trkpt lat="44.81507" lon="4.22365">
        <ele>1507.97</ele>
        <time>2020-09-12T09:27:32Z</time>
      </trkpt>
      <trkpt lat="44.81508" lon="4.22364">
        <ele>1507.97</ele>
        <time>2020-09-12T09:28:04Z</time>
      </trkpt>
      <trkpt lat="44.81506" lon="4.22362">
        <ele>1507.97</ele>
        <time>2020-09-12T09:28:35Z</time>
      </trkpt>
      <trkpt lat="44.81504" lon="4.2236">
        <ele>1507.97</ele>
        <time>2020-09-12T09:28:57Z</time>
      </trkpt>
      <trkpt lat="44.81498" lon="4.22357">
        <ele>1507.97</ele>
        <time>2020-09-12T09:29:22Z</time>
      </trkpt>
      <trkpt lat="44.81491" lon="4.22349">
        <ele>1507.97</ele>
        <time>2020-09-12T09:29:33Z</time>
      </trkpt>
      <trkpt lat="44.81475" lon="4.22329">
        <ele>1507</ele>
        <time>2020-09-12T09:29:52Z</time>
      </trkpt>
      <trkpt lat="44.81461" lon="4.22308">
        <ele>1507</ele>
        <time>2020-09-12T09:30:09Z</time>
      </trkpt>
      <trkpt lat="44.81447" lon="4.22287">
        <ele>1507</ele>
        <time>2020-09-12T09:30:27Z</time>
      </trkpt>
      <trkpt lat="44.81444" lon="4.22284">
        <ele>1507</ele>
        <time>2020-09-12T09:30:32Z</time>
      </trkpt>
      <trkpt lat="44.81427" lon="4.22263">
        <ele>1506.04</ele>
        <time>2020-09-12T09:30:51Z</time>
      </trkpt>
      <trkpt lat="44.81416" lon="4.22246">
        <ele>1505.56</ele>
        <time>2020-09-12T09:31:06Z</time>
      </trkpt>
      <trkpt lat="44.81402" lon="4.22227">
        <ele>1505.08</ele>
        <time>2020-09-12T09:31:21Z</time>
      </trkpt>
      <trkpt lat="44.81398" lon="4.22204">
        <ele>1506.04</ele>
        <time>2020-09-12T09:31:36Z</time>
      </trkpt>
      <trkpt lat="44.81403" lon="4.2218">
        <ele>1507.48</ele>
        <time>2020-09-12T09:31:51Z</time>
      </trkpt>
      <trkpt lat="44.81407" lon="4.22158">
        <ele>1507.97</ele>
        <time>2020-09-12T09:32:08Z</time>
      </trkpt>
      <trkpt lat="44.81413" lon="4.22134">
        <ele>1507.97</ele>
        <time>2020-09-12T09:32:23Z</time>
      </trkpt>
      <trkpt lat="44.81418" lon="4.22115">
        <ele>1510.37</ele>
        <time>2020-09-12T09:32:41Z</time>
      </trkpt>
      <trkpt lat="44.81426" lon="4.22087">
        <ele>1511.81</ele>
        <time>2020-09-12T09:33:04Z</time>
      </trkpt>
      <trkpt lat="44.8143" lon="4.22063">
        <ele>1512.77</ele>
        <time>2020-09-12T09:33:21Z</time>
      </trkpt>
      <trkpt lat="44.81434" lon="4.22033">
        <ele>1513.25</ele>
        <time>2020-09-12T09:33:42Z</time>
      </trkpt>
      <trkpt lat="44.81443" lon="4.22004">
        <ele>1512.77</ele>
        <time>2020-09-12T09:34:00Z</time>
      </trkpt>
      <trkpt lat="44.81444" lon="4.22002">
        <ele>1512.77</ele>
        <time>2020-09-12T09:34:01Z</time>
      </trkpt>
      <trkpt lat="44.81451" lon="4.21981">
        <ele>1512.29</ele>
        <time>2020-09-12T09:34:16Z</time>
      </trkpt>
      <trkpt lat="44.81462" lon="4.21957">
        <ele>1513.25</ele>
        <time>2020-09-12T09:34:32Z</time>
      </trkpt>
      <trkpt lat="44.81464" lon="4.21951">
        <ele>1513.73</ele>
        <time>2020-09-12T09:34:37Z</time>
      </trkpt>
      <trkpt lat="44.81474" lon="4.21931">
        <ele>1514.21</ele>
        <time>2020-09-12T09:34:54Z</time>
      </trkpt>
      <trkpt lat="44.81483" lon="4.21916">
        <ele>1514.21</ele>
        <time>2020-09-12T09:35:08Z</time>
      </trkpt>
      <trkpt lat="44.81494" lon="4.219">
        <ele>1515.18</ele>
        <time>2020-09-12T09:35:21Z</time>
      </trkpt>
      <trkpt lat="44.81503" lon="4.21882">
        <ele>1516.62</ele>
        <time>2020-09-12T09:35:36Z</time>
      </trkpt>
      <trkpt lat="44.81501" lon="4.21869">
        <ele>1516.14</ele>
        <time>2020-09-12T09:35:48Z</time>
      </trkpt>
      <trkpt lat="44.81501" lon="4.21854">
        <ele>1515.18</ele>
        <time>2020-09-12T09:36:10Z</time>
      </trkpt>
      <trkpt lat="44.81498" lon="4.21833">
        <ele>1513.25</ele>
        <time>2020-09-12T09:36:28Z</time>
      </trkpt>
      <trkpt lat="44.81497" lon="4.2181">
        <ele>1511.33</ele>
        <time>2020-09-12T09:36:46Z</time>
      </trkpt>
      <trkpt lat="44.81498" lon="4.21788">
        <ele>1509.89</ele>
        <time>2020-09-12T09:37:06Z</time>
      </trkpt>
      <trkpt lat="44.81508" lon="4.21766">
        <ele>1509.41</ele>
        <time>2020-09-12T09:37:27Z</time>
      </trkpt>
      <trkpt lat="44.81501" lon="4.21752">
        <ele>1507.97</ele>
        <time>2020-09-12T09:37:40Z</time>
      </trkpt>
      <trkpt lat="44.81494" lon="4.21728">
        <ele>1505.56</ele>
        <time>2020-09-12T09:38:00Z</time>
      </trkpt>
      <trkpt lat="44.81491" lon="4.21713">
        <ele>1504.12</ele>
        <time>2020-09-12T09:38:16Z</time>
      </trkpt>
      <trkpt lat="44.81502" lon="4.21698">
        <ele>1503.16</ele>
        <time>2020-09-12T09:38:37Z</time>
      </trkpt>
      <trkpt lat="44.81518" lon="4.21698">
        <ele>1503.64</ele>
        <time>2020-09-12T09:38:53Z</time>
      </trkpt>
      <trkpt lat="44.81532" lon="4.21699">
        <ele>1504.6</ele>
        <time>2020-09-12T09:39:10Z</time>
      </trkpt>
      <trkpt lat="44.81541" lon="4.21691">
        <ele>1505.08</ele>
        <time>2020-09-12T09:39:22Z</time>
      </trkpt>
      <trkpt lat="44.81559" lon="4.2167">
        <ele>1505.08</ele>
        <time>2020-09-12T09:39:44Z</time>
      </trkpt>
      <trkpt lat="44.81561" lon="4.21668">
        <ele>1505.08</ele>
        <time>2020-09-12T09:39:46Z</time>
      </trkpt>
      <trkpt lat="44.81574" lon="4.21641">
        <ele>1504.12</ele>
        <time>2020-09-12T09:40:04Z</time>
      </trkpt>
      <trkpt lat="44.81589" lon="4.21633">
        <ele>1505.08</ele>
        <time>2020-09-12T09:40:22Z</time>
      </trkpt>
      <trkpt lat="44.81592" lon="4.21632">
        <ele>1504.12</ele>
        <time>2020-09-12T09:40:46Z</time>
      </trkpt>
      <trkpt lat="44.81594" lon="4.21627">
        <ele>1503.64</ele>
        <time>2020-09-12T09:41:18Z</time>
      </trkpt>
      <trkpt lat="44.81593" lon="4.21626">
        <ele>1503.64</ele>
        <time>2020-09-12T09:41:39Z</time>
      </trkpt>
      <trkpt lat="44.81592" lon="4.21624">
        <ele>1503.64</ele>
        <time>2020-09-12T09:42:15Z</time>
      </trkpt>
      <trkpt lat="44.81592" lon="4.21625">
        <ele>1503.64</ele>
        <time>2020-09-12T09:42:48Z</time>
      </trkpt>
      <trkpt lat="44.81594" lon="4.21625">
        <ele>1503.64</ele>
        <time>2020-09-12T09:43:25Z</time>
      </trkpt>
      <trkpt lat="44.81604" lon="4.21625">
        <ele>1503.64</ele>
        <time>2020-09-12T09:43:35Z</time>
      </trkpt>
      <trkpt lat="44.81624" lon="4.21619">
        <ele>1505.56</ele>
        <time>2020-09-12T09:43:55Z</time>
      </trkpt>
      <trkpt lat="44.81645" lon="4.21618">
        <ele>1505.56</ele>
        <time>2020-09-12T09:44:15Z</time>
      </trkpt>
      <trkpt lat="44.81663" lon="4.21613">
        <ele>1506.52</ele>
        <time>2020-09-12T09:44:33Z</time>
      </trkpt>
      <trkpt lat="44.81679" lon="4.21605">
        <ele>1505.56</ele>
        <time>2020-09-12T09:44:47Z</time>
      </trkpt>
      <trkpt lat="44.81695" lon="4.21602">
        <ele>1506.04</ele>
        <time>2020-09-12T09:45:04Z</time>
      </trkpt>
      <trkpt lat="44.81711" lon="4.2159">
        <ele>1506.04</ele>
        <time>2020-09-12T09:45:21Z</time>
      </trkpt>
      <trkpt lat="44.81731" lon="4.21579">
        <ele>1506.52</ele>
        <time>2020-09-12T09:45:39Z</time>
      </trkpt>
      <trkpt lat="44.81754" lon="4.21568">
        <ele>1507</ele>
        <time>2020-09-12T09:46:00Z</time>
      </trkpt>
      <trkpt lat="44.81776" lon="4.21558">
        <ele>1507</ele>
        <time>2020-09-12T09:46:22Z</time>
      </trkpt>
      <trkpt lat="44.81793" lon="4.2155">
        <ele>1507.48</ele>
        <time>2020-09-12T09:46:42Z</time>
      </trkpt>
      <trkpt lat="44.81817" lon="4.21546">
        <ele>1508.45</ele>
        <time>2020-09-12T09:47:04Z</time>
      </trkpt>
      <trkpt lat="44.81821" lon="4.21545">
        <ele>1508.93</ele>
        <time>2020-09-12T09:47:08Z</time>
      </trkpt>
      <trkpt lat="44.81841" lon="4.21534">
        <ele>1508.93</ele>
        <time>2020-09-12T09:47:26Z</time>
      </trkpt>
      <trkpt lat="44.81849" lon="4.21528">
        <ele>1509.41</ele>
        <time>2020-09-12T09:47:42Z</time>
      </trkpt>
      <trkpt lat="44.8186" lon="4.21527">
        <ele>1510.85</ele>
        <time>2020-09-12T09:48:07Z</time>
      </trkpt>
      <trkpt lat="44.81876" lon="4.21525">
        <ele>1511.81</ele>
        <time>2020-09-12T09:48:24Z</time>
      </trkpt>
      <trkpt lat="44.81896" lon="4.21526">
        <ele>1513.73</ele>
        <time>2020-09-12T09:48:44Z</time>
      </trkpt>
      <trkpt lat="44.81915" lon="4.21518">
        <ele>1514.69</ele>
        <time>2020-09-12T09:49:01Z</time>
      </trkpt>
      <trkpt lat="44.81937" lon="4.21515">
        <ele>1516.14</ele>
        <time>2020-09-12T09:49:23Z</time>
      </trkpt>
      <trkpt lat="44.81954" lon="4.21516">
        <ele>1516.62</ele>
        <time>2020-09-12T09:49:39Z</time>
      </trkpt>
      <trkpt lat="44.81976" lon="4.21521">
        <ele>1518.06</ele>
        <time>2020-09-12T09:50:03Z</time>
      </trkpt>
      <trkpt lat="44.81984" lon="4.21523">
        <ele>1518.54</ele>
        <time>2020-09-12T09:50:34Z</time>
      </trkpt>
      <trkpt lat="44.81985" lon="4.21522">
        <ele>1518.54</ele>
        <time>2020-09-12T09:50:50Z</time>
      </trkpt>
      <trkpt lat="44.8199" lon="4.21524">
        <ele>1519.02</ele>
        <time>2020-09-12T09:51:06Z</time>
      </trkpt>
      <trkpt lat="44.82009" lon="4.21529">
        <ele>1519.5</ele>
        <time>2020-09-12T09:51:27Z</time>
      </trkpt>
      <trkpt lat="44.82027" lon="4.21536">
        <ele>1521.42</ele>
        <time>2020-09-12T09:51:44Z</time>
      </trkpt>
      <trkpt lat="44.82045" lon="4.21546">
        <ele>1521.9</ele>
        <time>2020-09-12T09:52:03Z</time>
      </trkpt>
      <trkpt lat="44.82063" lon="4.21553">
        <ele>1522.87</ele>
        <time>2020-09-12T09:52:21Z</time>
      </trkpt>
      <trkpt lat="44.82071" lon="4.21557">
        <ele>1522.87</ele>
        <time>2020-09-12T09:52:32Z</time>
      </trkpt>
      <trkpt lat="44.82076" lon="4.2156">
        <ele>1522.87</ele>
        <time>2020-09-12T09:52:37Z</time>
      </trkpt>
      <trkpt lat="44.82085" lon="4.21564">
        <ele>1523.35</ele>
        <time>2020-09-12T09:52:45Z</time>
      </trkpt>
      <trkpt lat="44.821" lon="4.21576">
        <ele>1522.39</ele>
        <time>2020-09-12T09:53:02Z</time>
      </trkpt>
      <trkpt lat="44.82116" lon="4.21588">
        <ele>1524.79</ele>
        <time>2020-09-12T09:53:20Z</time>
      </trkpt>
      <trkpt lat="44.82134" lon="4.21599">
        <ele>1524.79</ele>
        <time>2020-09-12T09:53:38Z</time>
      </trkpt>
      <trkpt lat="44.82144" lon="4.21603">
        <ele>1524.31</ele>
        <time>2020-09-12T09:53:53Z</time>
      </trkpt>
      <trkpt lat="44.82163" lon="4.21613">
        <ele>1524.31</ele>
        <time>2020-09-12T09:54:13Z</time>
      </trkpt>
      <trkpt lat="44.82171" lon="4.21623">
        <ele>1524.31</ele>
        <time>2020-09-12T09:54:24Z</time>
      </trkpt>
      <trkpt lat="44.82188" lon="4.21637">
        <ele>1524.79</ele>
        <time>2020-09-12T09:54:44Z</time>
      </trkpt>
      <trkpt lat="44.82192" lon="4.2164">
        <ele>1524.79</ele>
        <time>2020-09-12T09:54:49Z</time>
      </trkpt>
      <trkpt lat="44.82212" lon="4.21651">
        <ele>1525.27</ele>
        <time>2020-09-12T09:55:07Z</time>
      </trkpt>
      <trkpt lat="44.82228" lon="4.21666">
        <ele>1525.27</ele>
        <time>2020-09-12T09:55:26Z</time>
      </trkpt>
      <trkpt lat="44.82235" lon="4.2167">
        <ele>1524.79</ele>
        <time>2020-09-12T09:55:42Z</time>
      </trkpt>
      <trkpt lat="44.82244" lon="4.21678">
        <ele>1524.79</ele>
        <time>2020-09-12T09:55:59Z</time>
      </trkpt>
      <trkpt lat="44.82261" lon="4.21693">
        <ele>1525.27</ele>
        <time>2020-09-12T09:56:18Z</time>
      </trkpt>
      <trkpt lat="44.82273" lon="4.21707">
        <ele>1525.27</ele>
        <time>2020-09-12T09:56:33Z</time>
      </trkpt>
      <trkpt lat="44.8228" lon="4.21713">
        <ele>1524.79</ele>
        <time>2020-09-12T09:56:40Z</time>
      </trkpt>
      <trkpt lat="44.82291" lon="4.21733">
        <ele>1525.27</ele>
        <time>2020-09-12T09:56:58Z</time>
      </trkpt>
      <trkpt lat="44.82305" lon="4.2176">
        <ele>1525.27</ele>
        <time>2020-09-12T09:57:20Z</time>
      </trkpt>
      <trkpt lat="44.82321" lon="4.21783">
        <ele>1525.75</ele>
        <time>2020-09-12T09:57:40Z</time>
      </trkpt>
      <trkpt lat="44.82325" lon="4.21796">
        <ele>1526.23</ele>
        <time>2020-09-12T09:57:50Z</time>
      </trkpt>
      <trkpt lat="44.8233" lon="4.21821">
        <ele>1527.19</ele>
        <time>2020-09-12T09:58:08Z</time>
      </trkpt>
      <trkpt lat="44.82338" lon="4.2184">
        <ele>1527.19</ele>
        <time>2020-09-12T09:58:24Z</time>
      </trkpt>
      <trkpt lat="44.82338" lon="4.21844">
        <ele>1526.71</ele>
        <time>2020-09-12T09:58:47Z</time>
      </trkpt>
      <trkpt lat="44.82342" lon="4.21846">
        <ele>1526.23</ele>
        <time>2020-09-12T10:00:01Z</time>
      </trkpt>
      <trkpt lat="44.82345" lon="4.21849">
        <ele>1526.23</ele>
        <time>2020-09-12T10:00:05Z</time>
      </trkpt>
      <trkpt lat="44.82356" lon="4.21871">
        <ele>1527.19</ele>
        <time>2020-09-12T10:00:21Z</time>
      </trkpt>
      <trkpt lat="44.82356" lon="4.2187">
        <ele>1527.19</ele>
        <time>2020-09-12T10:00:44Z</time>
      </trkpt>
      <trkpt lat="44.82361" lon="4.2189">
        <ele>1527.67</ele>
        <time>2020-09-12T10:01:02Z</time>
      </trkpt>
      <trkpt lat="44.82368" lon="4.21906">
        <ele>1528.15</ele>
        <time>2020-09-12T10:01:15Z</time>
      </trkpt>
      <trkpt lat="44.82382" lon="4.21928">
        <ele>1528.63</ele>
        <time>2020-09-12T10:01:32Z</time>
      </trkpt>
      <trkpt lat="44.82383" lon="4.21929">
        <ele>1528.63</ele>
        <time>2020-09-12T10:01:33Z</time>
      </trkpt>
      <trkpt lat="44.82396" lon="4.2196">
        <ele>1527.19</ele>
        <time>2020-09-12T10:01:55Z</time>
      </trkpt>
      <trkpt lat="44.82403" lon="4.21993">
        <ele>1528.15</ele>
        <time>2020-09-12T10:02:14Z</time>
      </trkpt>
      <trkpt lat="44.82416" lon="4.22001">
        <ele>1527.19</ele>
        <time>2020-09-12T10:02:29Z</time>
      </trkpt>
      <trkpt lat="44.82418" lon="4.22003">
        <ele>1527.19</ele>
        <time>2020-09-12T10:02:35Z</time>
      </trkpt>
      <trkpt lat="44.82419" lon="4.22006">
        <ele>1527.19</ele>
        <time>2020-09-12T10:02:37Z</time>
      </trkpt>
      <trkpt lat="44.82422" lon="4.22012">
        <ele>1527.19</ele>
        <time>2020-09-12T10:02:41Z</time>
      </trkpt>
      <trkpt lat="44.82434" lon="4.22029">
        <ele>1526.71</ele>
        <time>2020-09-12T10:02:54Z</time>
      </trkpt>
      <trkpt lat="44.82435" lon="4.22035">
        <ele>1526.71</ele>
        <time>2020-09-12T10:02:58Z</time>
      </trkpt>
      <trkpt lat="44.82447" lon="4.22067">
        <ele>1526.23</ele>
        <time>2020-09-12T10:03:18Z</time>
      </trkpt>
      <trkpt lat="44.82468" lon="4.22076">
        <ele>1525.75</ele>
        <time>2020-09-12T10:03:34Z</time>
      </trkpt>
      <trkpt lat="44.82488" lon="4.22073">
        <ele>1523.83</ele>
        <time>2020-09-12T10:03:50Z</time>
      </trkpt>
      <trkpt lat="44.82507" lon="4.22072">
        <ele>1522.87</ele>
        <time>2020-09-12T10:04:06Z</time>
      </trkpt>
      <trkpt lat="44.82529" lon="4.22071">
        <ele>1522.39</ele>
        <time>2020-09-12T10:04:21Z</time>
      </trkpt>
      <trkpt lat="44.82538" lon="4.22074">
        <ele>1522.87</ele>
        <time>2020-09-12T10:04:36Z</time>
      </trkpt>
      <trkpt lat="44.82555" lon="4.22079">
        <ele>1522.39</ele>
        <time>2020-09-12T10:04:52Z</time>
      </trkpt>
      <trkpt lat="44.82573" lon="4.22089">
        <ele>1522.39</ele>
        <time>2020-09-12T10:05:11Z</time>
      </trkpt>
      <trkpt lat="44.82591" lon="4.22095">
        <ele>1522.87</ele>
        <time>2020-09-12T10:05:27Z</time>
      </trkpt>
      <trkpt lat="44.8261" lon="4.22102">
        <ele>1523.83</ele>
        <time>2020-09-12T10:05:43Z</time>
      </trkpt>
      <trkpt lat="44.82628" lon="4.22109">
        <ele>1524.31</ele>
        <time>2020-09-12T10:06:00Z</time>
      </trkpt>
      <trkpt lat="44.82648" lon="4.22116">
        <ele>1523.83</ele>
        <time>2020-09-12T10:06:18Z</time>
      </trkpt>
      <trkpt lat="44.82672" lon="4.22121">
        <ele>1525.75</ele>
        <time>2020-09-12T10:06:36Z</time>
      </trkpt>
      <trkpt lat="44.82678" lon="4.22126">
        <ele>1525.75</ele>
        <time>2020-09-12T10:06:42Z</time>
      </trkpt>
      <trkpt lat="44.82684" lon="4.22159">
        <ele>1523.83</ele>
        <time>2020-09-12T10:07:01Z</time>
      </trkpt>
      <trkpt lat="44.8269" lon="4.22186">
        <ele>1523.35</ele>
        <time>2020-09-12T10:07:17Z</time>
      </trkpt>
      <trkpt lat="44.82695" lon="4.22215">
        <ele>1523.83</ele>
        <time>2020-09-12T10:07:34Z</time>
      </trkpt>
      <trkpt lat="44.82702" lon="4.22246">
        <ele>1523.83</ele>
        <time>2020-09-12T10:07:52Z</time>
      </trkpt>
      <trkpt lat="44.82709" lon="4.22278">
        <ele>1523.35</ele>
        <time>2020-09-12T10:08:11Z</time>
      </trkpt>
      <trkpt lat="44.82717" lon="4.2231">
        <ele>1522.39</ele>
        <time>2020-09-12T10:08:29Z</time>
      </trkpt>
      <trkpt lat="44.82728" lon="4.22341">
        <ele>1520.94</ele>
        <time>2020-09-12T10:08:48Z</time>
      </trkpt>
      <trkpt lat="44.8274" lon="4.22368">
        <ele>1520.46</ele>
        <time>2020-09-12T10:09:04Z</time>
      </trkpt>
      <trkpt lat="44.82753" lon="4.22395">
        <ele>1519.5</ele>
        <time>2020-09-12T10:09:22Z</time>
      </trkpt>
      <trkpt lat="44.82767" lon="4.22416">
        <ele>1519.98</ele>
        <time>2020-09-12T10:09:38Z</time>
      </trkpt>
      <trkpt lat="44.82782" lon="4.22444">
        <ele>1519.98</ele>
        <time>2020-09-12T10:09:58Z</time>
      </trkpt>
      <trkpt lat="44.828" lon="4.22479">
        <ele>1519.98</ele>
        <time>2020-09-12T10:10:21Z</time>
      </trkpt>
      <trkpt lat="44.82815" lon="4.2251">
        <ele>1520.94</ele>
        <time>2020-09-12T10:10:41Z</time>
      </trkpt>
      <trkpt lat="44.82828" lon="4.22534">
        <ele>1520.94</ele>
        <time>2020-09-12T10:10:58Z</time>
      </trkpt>
      <trkpt lat="44.82843" lon="4.22561">
        <ele>1521.42</ele>
        <time>2020-09-12T10:11:18Z</time>
      </trkpt>
      <trkpt lat="44.82861" lon="4.22594">
        <ele>1521.42</ele>
        <time>2020-09-12T10:11:41Z</time>
      </trkpt>
      <trkpt lat="44.82878" lon="4.22625">
        <ele>1521.42</ele>
        <time>2020-09-12T10:12:03Z</time>
      </trkpt>
      <trkpt lat="44.82892" lon="4.22654">
        <ele>1522.39</ele>
        <time>2020-09-12T10:12:23Z</time>
      </trkpt>
      <trkpt lat="44.82907" lon="4.22684">
        <ele>1522.39</ele>
        <time>2020-09-12T10:12:43Z</time>
      </trkpt>
      <trkpt lat="44.82913" lon="4.22689">
        <ele>1522.39</ele>
        <time>2020-09-12T10:12:49Z</time>
      </trkpt>
      <trkpt lat="44.82914" lon="4.22698">
        <ele>1522.87</ele>
        <time>2020-09-12T10:12:54Z</time>
      </trkpt>
      <trkpt lat="44.82917" lon="4.22729">
        <ele>1522.39</ele>
        <time>2020-09-12T10:13:14Z</time>
      </trkpt>
      <trkpt lat="44.82918" lon="4.22728">
        <ele>1522.39</ele>
        <time>2020-09-12T10:13:45Z</time>
      </trkpt>
      <trkpt lat="44.82917" lon="4.22728">
        <ele>1522.39</ele>
        <time>2020-09-12T10:14:23Z</time>
      </trkpt>
      <trkpt lat="44.82917" lon="4.22727">
        <ele>1522.39</ele>
        <time>2020-09-12T10:14:45Z</time>
      </trkpt>
      <trkpt lat="44.82917" lon="4.22728">
        <ele>1522.39</ele>
        <time>2020-09-12T10:15:13Z</time>
      </trkpt>
      <trkpt lat="44.82916" lon="4.22726">
        <ele>1522.39</ele>
        <time>2020-09-12T10:15:36Z</time>
      </trkpt>
      <trkpt lat="44.82916" lon="4.22727">
        <ele>1522.39</ele>
        <time>2020-09-12T10:16:15Z</time>
      </trkpt>
      <trkpt lat="44.82916" lon="4.22729">
        <ele>1522.39</ele>
        <time>2020-09-12T10:16:49Z</time>
      </trkpt>
      <trkpt lat="44.82915" lon="4.22736">
        <ele>1522.39</ele>
        <time>2020-09-12T10:16:53Z</time>
      </trkpt>
      <trkpt lat="44.82899" lon="4.22757">
        <ele>1523.35</ele>
        <time>2020-09-12T10:17:09Z</time>
      </trkpt>
      <trkpt lat="44.82879" lon="4.22773">
        <ele>1522.39</ele>
        <time>2020-09-12T10:17:28Z</time>
      </trkpt>
      <trkpt lat="44.82853" lon="4.22793">
        <ele>1521.42</ele>
        <time>2020-09-12T10:17:49Z</time>
      </trkpt>
      <trkpt lat="44.82828" lon="4.22813">
        <ele>1520.46</ele>
        <time>2020-09-12T10:18:11Z</time>
      </trkpt>
      <trkpt lat="44.82801" lon="4.22833">
        <ele>1519.5</ele>
        <time>2020-09-12T10:18:34Z</time>
      </trkpt>
      <trkpt lat="44.82775" lon="4.2285">
        <ele>1518.54</ele>
        <time>2020-09-12T10:18:56Z</time>
      </trkpt>
      <trkpt lat="44.8275" lon="4.22864">
        <ele>1517.58</ele>
        <time>2020-09-12T10:19:17Z</time>
      </trkpt>
      <trkpt lat="44.82734" lon="4.22873">
        <ele>1517.1</ele>
        <time>2020-09-12T10:19:33Z</time>
      </trkpt>
      <trkpt lat="44.82709" lon="4.22882">
        <ele>1515.66</ele>
        <time>2020-09-12T10:19:54Z</time>
      </trkpt>
      <trkpt lat="44.8268" lon="4.22889">
        <ele>1514.69</ele>
        <time>2020-09-12T10:20:16Z</time>
      </trkpt>
      <trkpt lat="44.82652" lon="4.22895">
        <ele>1513.25</ele>
        <time>2020-09-12T10:20:39Z</time>
      </trkpt>
      <trkpt lat="44.82629" lon="4.22904">
        <ele>1511.81</ele>
        <time>2020-09-12T10:20:58Z</time>
      </trkpt>
      <trkpt lat="44.82601" lon="4.22912">
        <ele>1510.37</ele>
        <time>2020-09-12T10:21:19Z</time>
      </trkpt>
      <trkpt lat="44.82575" lon="4.2292">
        <ele>1509.41</ele>
        <time>2020-09-12T10:21:40Z</time>
      </trkpt>
      <trkpt lat="44.82549" lon="4.22924">
        <ele>1508.45</ele>
        <time>2020-09-12T10:22:00Z</time>
      </trkpt>
      <trkpt lat="44.82533" lon="4.22929">
        <ele>1507.48</ele>
        <time>2020-09-12T10:22:14Z</time>
      </trkpt>
      <trkpt lat="44.82504" lon="4.22936">
        <ele>1506.52</ele>
        <time>2020-09-12T10:22:37Z</time>
      </trkpt>
      <trkpt lat="44.82478" lon="4.22943">
        <ele>1505.08</ele>
        <time>2020-09-12T10:22:58Z</time>
      </trkpt>
      <trkpt lat="44.82459" lon="4.22947">
        <ele>1503.64</ele>
        <time>2020-09-12T10:23:18Z</time>
      </trkpt>
      <trkpt lat="44.82454" lon="4.2295">
        <ele>1503.64</ele>
        <time>2020-09-12T10:23:35Z</time>
      </trkpt>
      <trkpt lat="44.8243" lon="4.22964">
        <ele>1502.68</ele>
        <time>2020-09-12T10:23:56Z</time>
      </trkpt>
      <trkpt lat="44.82404" lon="4.22983">
        <ele>1501.24</ele>
        <time>2020-09-12T10:24:19Z</time>
      </trkpt>
      <trkpt lat="44.82385" lon="4.23005">
        <ele>1499.79</ele>
        <time>2020-09-12T10:24:38Z</time>
      </trkpt>
      <trkpt lat="44.82373" lon="4.23027">
        <ele>1498.35</ele>
        <time>2020-09-12T10:24:53Z</time>
      </trkpt>
      <trkpt lat="44.82362" lon="4.23056">
        <ele>1496.43</ele>
        <time>2020-09-12T10:25:12Z</time>
      </trkpt>
      <trkpt lat="44.82354" lon="4.23097">
        <ele>1494.99</ele>
        <time>2020-09-12T10:25:35Z</time>
      </trkpt>
      <trkpt lat="44.82348" lon="4.23136">
        <ele>1493.06</ele>
        <time>2020-09-12T10:25:58Z</time>
      </trkpt>
      <trkpt lat="44.82342" lon="4.23168">
        <ele>1491.62</ele>
        <time>2020-09-12T10:26:16Z</time>
      </trkpt>
      <trkpt lat="44.82339" lon="4.23191">
        <ele>1490.18</ele>
        <time>2020-09-12T10:26:30Z</time>
      </trkpt>
      <trkpt lat="44.82338" lon="4.23198">
        <ele>1490.18</ele>
        <time>2020-09-12T10:26:34Z</time>
      </trkpt>
      <trkpt lat="44.8233" lon="4.23232">
        <ele>1488.74</ele>
        <time>2020-09-12T10:26:55Z</time>
      </trkpt>
      <trkpt lat="44.82322" lon="4.23272">
        <ele>1487.78</ele>
        <time>2020-09-12T10:27:18Z</time>
      </trkpt>
      <trkpt lat="44.82316" lon="4.23312">
        <ele>1485.85</ele>
        <time>2020-09-12T10:27:41Z</time>
      </trkpt>
      <trkpt lat="44.82309" lon="4.23354">
        <ele>1483.93</ele>
        <time>2020-09-12T10:28:05Z</time>
      </trkpt>
      <trkpt lat="44.82306" lon="4.23389">
        <ele>1481.53</ele>
        <time>2020-09-12T10:28:25Z</time>
      </trkpt>
      <trkpt lat="44.82302" lon="4.23419">
        <ele>1480.09</ele>
        <time>2020-09-12T10:28:42Z</time>
      </trkpt>
      <trkpt lat="44.82293" lon="4.23447">
        <ele>1478.16</ele>
        <time>2020-09-12T10:28:59Z</time>
      </trkpt>
      <trkpt lat="44.82281" lon="4.23473">
        <ele>1477.2</ele>
        <time>2020-09-12T10:29:16Z</time>
      </trkpt>
      <trkpt lat="44.82267" lon="4.23502">
        <ele>1474.32</ele>
        <time>2020-09-12T10:29:36Z</time>
      </trkpt>
      <trkpt lat="44.82254" lon="4.23539">
        <ele>1471.92</ele>
        <time>2020-09-12T10:29:58Z</time>
      </trkpt>
      <trkpt lat="44.82242" lon="4.23583">
        <ele>1469.51</ele>
        <time>2020-09-12T10:30:23Z</time>
      </trkpt>
      <trkpt lat="44.82232" lon="4.23617">
        <ele>1468.07</ele>
        <time>2020-09-12T10:30:43Z</time>
      </trkpt>
      <trkpt lat="44.82222" lon="4.23651">
        <ele>1465.19</ele>
        <time>2020-09-12T10:31:02Z</time>
      </trkpt>
      <trkpt lat="44.82211" lon="4.2369">
        <ele>1463.74</ele>
        <time>2020-09-12T10:31:24Z</time>
      </trkpt>
      <trkpt lat="44.82197" lon="4.23737">
        <ele>1460.86</ele>
        <time>2020-09-12T10:31:51Z</time>
      </trkpt>
      <trkpt lat="44.82185" lon="4.23769">
        <ele>1459.42</ele>
        <time>2020-09-12T10:32:10Z</time>
      </trkpt>
      <trkpt lat="44.82173" lon="4.23803">
        <ele>1457.5</ele>
        <time>2020-09-12T10:32:30Z</time>
      </trkpt>
      <trkpt lat="44.82159" lon="4.23836">
        <ele>1456.53</ele>
        <time>2020-09-12T10:32:51Z</time>
      </trkpt>
      <trkpt lat="44.82141" lon="4.23874">
        <ele>1455.57</ele>
        <time>2020-09-12T10:33:15Z</time>
      </trkpt>
      <trkpt lat="44.82118" lon="4.23918">
        <ele>1454.13</ele>
        <time>2020-09-12T10:33:43Z</time>
      </trkpt>
      <trkpt lat="44.82103" lon="4.23946">
        <ele>1453.65</ele>
        <time>2020-09-12T10:34:02Z</time>
      </trkpt>
      <trkpt lat="44.82091" lon="4.23969">
        <ele>1452.69</ele>
        <time>2020-09-12T10:34:19Z</time>
      </trkpt>
      <trkpt lat="44.82069" lon="4.23998">
        <ele>1452.21</ele>
        <time>2020-09-12T10:34:41Z</time>
      </trkpt>
      <trkpt lat="44.82048" lon="4.24027">
        <ele>1451.25</ele>
        <time>2020-09-12T10:35:04Z</time>
      </trkpt>
      <trkpt lat="44.82036" lon="4.24044">
        <ele>1451.25</ele>
        <time>2020-09-12T10:35:17Z</time>
      </trkpt>
      <trkpt lat="44.82013" lon="4.2407">
        <ele>1450.77</ele>
        <time>2020-09-12T10:35:40Z</time>
      </trkpt>
      <trkpt lat="44.81991" lon="4.24092">
        <ele>1449.81</ele>
        <time>2020-09-12T10:36:00Z</time>
      </trkpt>
      <trkpt lat="44.81966" lon="4.24118">
        <ele>1449.32</ele>
        <time>2020-09-12T10:36:24Z</time>
      </trkpt>
      <trkpt lat="44.81949" lon="4.24133">
        <ele>1449.32</ele>
        <time>2020-09-12T10:36:39Z</time>
      </trkpt>
      <trkpt lat="44.81928" lon="4.24161">
        <ele>1448.36</ele>
        <time>2020-09-12T10:37:02Z</time>
      </trkpt>
      <trkpt lat="44.81913" lon="4.24187">
        <ele>1448.84</ele>
        <time>2020-09-12T10:37:20Z</time>
      </trkpt>
      <trkpt lat="44.81899" lon="4.24218">
        <ele>1449.32</ele>
        <time>2020-09-12T10:37:39Z</time>
      </trkpt>
      <trkpt lat="44.81889" lon="4.24244">
        <ele>1449.81</ele>
        <time>2020-09-12T10:37:57Z</time>
      </trkpt>
      <trkpt lat="44.81877" lon="4.24273">
        <ele>1450.29</ele>
        <time>2020-09-12T10:38:16Z</time>
      </trkpt>
      <trkpt lat="44.81869" lon="4.24306">
        <ele>1451.25</ele>
        <time>2020-09-12T10:38:36Z</time>
      </trkpt>
      <trkpt lat="44.81869" lon="4.24313">
        <ele>1451.25</ele>
        <time>2020-09-12T10:38:40Z</time>
      </trkpt>
      <trkpt lat="44.81852" lon="4.24331">
        <ele>1452.69</ele>
        <time>2020-09-12T10:38:57Z</time>
      </trkpt>
      <trkpt lat="44.81835" lon="4.24352">
        <ele>1453.17</ele>
        <time>2020-09-12T10:39:16Z</time>
      </trkpt>
      <trkpt lat="44.81818" lon="4.24367">
        <ele>1454.61</ele>
        <time>2020-09-12T10:39:34Z</time>
      </trkpt>
      <trkpt lat="44.81805" lon="4.24382">
        <ele>1456.05</ele>
        <time>2020-09-12T10:39:51Z</time>
      </trkpt>
      <trkpt lat="44.81804" lon="4.24381">
        <ele>1455.09</ele>
        <time>2020-09-12T10:40:13Z</time>
      </trkpt>
      <trkpt lat="44.81804" lon="4.24381">
        <ele>1456.05</ele>
        <time>2020-09-12T10:40:41Z</time>
      </trkpt>
      <trkpt lat="44.81804" lon="4.24381">
        <ele>1456.05</ele>
        <time>2020-09-12T10:41:05Z</time>
      </trkpt>
      <trkpt lat="44.81803" lon="4.2438">
        <ele>1456.05</ele>
        <time>2020-09-12T10:41:30Z</time>
      </trkpt>
      <trkpt lat="44.81803" lon="4.24381">
        <ele>1456.05</ele>
        <time>2020-09-12T10:41:57Z</time>
      </trkpt>
      <trkpt lat="44.81805" lon="4.2438">
        <ele>1456.05</ele>
        <time>2020-09-12T10:42:24Z</time>
      </trkpt>
      <trkpt lat="44.81805" lon="4.24381">
        <ele>1456.05</ele>
        <time>2020-09-12T10:42:59Z</time>
      </trkpt>
      <trkpt lat="44.81806" lon="4.24381">
        <ele>1456.05</ele>
        <time>2020-09-12T10:43:52Z</time>
      </trkpt>
      <trkpt lat="44.81805" lon="4.24381">
        <ele>1456.05</ele>
        <time>2020-09-12T10:44:27Z</time>
      </trkpt>
      <trkpt lat="44.81804" lon="4.24381">
        <ele>1456.05</ele>
        <time>2020-09-12T10:45:00Z</time>
      </trkpt>
      <trkpt lat="44.81806" lon="4.24381">
        <ele>1456.05</ele>
        <time>2020-09-12T10:45:36Z</time>
      </trkpt>
      <trkpt lat="44.81807" lon="4.24381">
        <ele>1456.05</ele>
        <time>2020-09-12T10:46:09Z</time>
      </trkpt>
      <trkpt lat="44.81808" lon="4.24383">
        <ele>1456.05</ele>
        <time>2020-09-12T10:46:44Z</time>
      </trkpt>
      <trkpt lat="44.81805" lon="4.24381">
        <ele>1456.05</ele>
        <time>2020-09-12T10:47:17Z</time>
      </trkpt>
      <trkpt lat="44.81805" lon="4.2438">
        <ele>1456.05</ele>
        <time>2020-09-12T10:47:54Z</time>
      </trkpt>
      <trkpt lat="44.81803" lon="4.24381">
        <ele>1456.05</ele>
        <time>2020-09-12T10:48:30Z</time>
      </trkpt>
      <trkpt lat="44.81803" lon="4.24381">
        <ele>1456.05</ele>
        <time>2020-09-12T10:49:05Z</time>
      </trkpt>
      <trkpt lat="44.81805" lon="4.24384">
        <ele>1456.05</ele>
        <time>2020-09-12T10:49:39Z</time>
      </trkpt>
      <trkpt lat="44.81806" lon="4.24383">
        <ele>1456.05</ele>
        <time>2020-09-12T10:50:18Z</time>
      </trkpt>
      <trkpt lat="44.81806" lon="4.24382">
        <ele>1456.05</ele>
        <time>2020-09-12T10:50:51Z</time>
      </trkpt>
      <trkpt lat="44.81808" lon="4.24384">
        <ele>1456.05</ele>
        <time>2020-09-12T10:51:25Z</time>
      </trkpt>
      <trkpt lat="44.81806" lon="4.24385">
        <ele>1456.05</ele>
        <time>2020-09-12T10:51:54Z</time>
      </trkpt>
      <trkpt lat="44.81804" lon="4.24381">
        <ele>1456.05</ele>
        <time>2020-09-12T10:52:19Z</time>
      </trkpt>
      <trkpt lat="44.81803" lon="4.24381">
        <ele>1456.05</ele>
        <time>2020-09-12T10:52:47Z</time>
      </trkpt>
      <trkpt lat="44.81802" lon="4.24381">
        <ele>1456.05</ele>
        <time>2020-09-12T10:55:10Z</time>
      </trkpt>
      <trkpt lat="44.81803" lon="4.24381">
        <ele>1456.05</ele>
        <time>2020-09-12T10:57:34Z</time>
      </trkpt>
      <trkpt lat="44.81802" lon="4.24381">
        <ele>1456.05</ele>
        <time>2020-09-12T10:59:25Z</time>
      </trkpt>
      <trkpt lat="44.81804" lon="4.2438">
        <ele>1456.05</ele>
        <time>2020-09-12T11:01:11Z</time>
      </trkpt>
      <trkpt lat="44.81804" lon="4.2438">
        <ele>1456.05</ele>
        <time>2020-09-12T11:03:26Z</time>
      </trkpt>
      <trkpt lat="44.81803" lon="4.24381">
        <ele>1456.05</ele>
        <time>2020-09-12T11:05:29Z</time>
      </trkpt>
      <trkpt lat="44.81803" lon="4.2438">
        <ele>1456.05</ele>
        <time>2020-09-12T11:08:01Z</time>
      </trkpt>
      <trkpt lat="44.81803" lon="4.24379">
        <ele>1456.05</ele>
        <time>2020-09-12T11:09:24Z</time>
      </trkpt>
      <trkpt lat="44.81803" lon="4.2438">
        <ele>1456.05</ele>
        <time>2020-09-12T11:10:29Z</time>
      </trkpt>
      <trkpt lat="44.81802" lon="4.2438">
        <ele>1456.05</ele>
        <time>2020-09-12T11:11:46Z</time>
      </trkpt>
      <trkpt lat="44.81802" lon="4.24379">
        <ele>1456.05</ele>
        <time>2020-09-12T11:14:11Z</time>
      </trkpt>
      <trkpt lat="44.81803" lon="4.2438">
        <ele>1456.05</ele>
        <time>2020-09-12T11:15:09Z</time>
      </trkpt>
      <trkpt lat="44.81803" lon="4.2438">
        <ele>1456.05</ele>
        <time>2020-09-12T11:16:22Z</time>
      </trkpt>
      <trkpt lat="44.81804" lon="4.24381">
        <ele>1456.05</ele>
        <time>2020-09-12T11:18:51Z</time>
      </trkpt>
      <trkpt lat="44.81804" lon="4.2438">
        <ele>1456.05</ele>
        <time>2020-09-12T11:20:52Z</time>
      </trkpt>
      <trkpt lat="44.81804" lon="4.24379">
        <ele>1456.05</ele>
        <time>2020-09-12T11:22:11Z</time>
      </trkpt>
      <trkpt lat="44.81803" lon="4.24381">
        <ele>1456.05</ele>
        <time>2020-09-12T11:23:41Z</time>
      </trkpt>
      <trkpt lat="44.81802" lon="4.24382">
        <ele>1456.05</ele>
        <time>2020-09-12T11:24:42Z</time>
      </trkpt>
      <trkpt lat="44.81802" lon="4.2438">
        <ele>1456.05</ele>
        <time>2020-09-12T11:26:25Z</time>
      </trkpt>
      <trkpt lat="44.81801" lon="4.24381">
        <ele>1456.05</ele>
        <time>2020-09-12T11:27:44Z</time>
      </trkpt>
      <trkpt lat="44.81803" lon="4.24381">
        <ele>1456.05</ele>
        <time>2020-09-12T11:28:58Z</time>
      </trkpt>
      <trkpt lat="44.818" lon="4.24385">
        <ele>1456.05</ele>
        <time>2020-09-12T11:30:27Z</time>
      </trkpt>
      <trkpt lat="44.81802" lon="4.24383">
        <ele>1456.05</ele>
        <time>2020-09-12T11:32:01Z</time>
      </trkpt>
      <trkpt lat="44.81802" lon="4.24383">
        <ele>1456.05</ele>
        <time>2020-09-12T11:32:24Z</time>
      </trkpt>
      <trkpt lat="44.81801" lon="4.24382">
        <ele>1456.05</ele>
        <time>2020-09-12T11:32:47Z</time>
      </trkpt>
      <trkpt lat="44.81801" lon="4.24383">
        <ele>1456.05</ele>
        <time>2020-09-12T11:33:16Z</time>
      </trkpt>
      <trkpt lat="44.81801" lon="4.24382">
        <ele>1456.05</ele>
        <time>2020-09-12T11:33:45Z</time>
      </trkpt>
      <trkpt lat="44.81803" lon="4.24382">
        <ele>1456.05</ele>
        <time>2020-09-12T11:34:18Z</time>
      </trkpt>
      <trkpt lat="44.81802" lon="4.2438">
        <ele>1456.05</ele>
        <time>2020-09-12T11:34:47Z</time>
      </trkpt>
      <trkpt lat="44.818" lon="4.24377">
        <ele>1456.05</ele>
        <time>2020-09-12T11:35:07Z</time>
      </trkpt>
      <trkpt lat="44.81802" lon="4.2438">
        <ele>1456.05</ele>
        <time>2020-09-12T11:35:38Z</time>
      </trkpt>
      <trkpt lat="44.81807" lon="4.24382">
        <ele>1456.05</ele>
        <time>2020-09-12T11:36:04Z</time>
      </trkpt>
      <trkpt lat="44.81806" lon="4.24385">
        <ele>1456.05</ele>
        <time>2020-09-12T11:36:36Z</time>
      </trkpt>
      <trkpt lat="44.81797" lon="4.24376">
        <ele>1456.05</ele>
        <time>2020-09-12T11:37:00Z</time>
      </trkpt>
      <trkpt lat="44.81796" lon="4.24373">
        <ele>1456.05</ele>
        <time>2020-09-12T11:37:05Z</time>
      </trkpt>
      <trkpt lat="44.81787" lon="4.24372">
        <ele>1454.61</ele>
        <time>2020-09-12T11:37:13Z</time>
      </trkpt>
      <trkpt lat="44.81762" lon="4.24379">
        <ele>1455.57</ele>
        <time>2020-09-12T11:37:36Z</time>
      </trkpt>
      <trkpt lat="44.81739" lon="4.2438">
        <ele>1457.02</ele>
        <time>2020-09-12T11:37:57Z</time>
      </trkpt>
      <trkpt lat="44.81726" lon="4.2438">
        <ele>1457.98</ele>
        <time>2020-09-12T11:38:09Z</time>
      </trkpt>
      <trkpt lat="44.81701" lon="4.24382">
        <ele>1458.46</ele>
        <time>2020-09-12T11:38:30Z</time>
      </trkpt>
      <trkpt lat="44.8168" lon="4.24382">
        <ele>1459.42</ele>
        <time>2020-09-12T11:38:49Z</time>
      </trkpt>
      <trkpt lat="44.8165" lon="4.24383">
        <ele>1461.34</ele>
        <time>2020-09-12T11:39:13Z</time>
      </trkpt>
      <trkpt lat="44.81624" lon="4.24383">
        <ele>1462.78</ele>
        <time>2020-09-12T11:39:34Z</time>
      </trkpt>
      <trkpt lat="44.816" lon="4.24383">
        <ele>1464.23</ele>
        <time>2020-09-12T11:39:54Z</time>
      </trkpt>
      <trkpt lat="44.81578" lon="4.24385">
        <ele>1465.67</ele>
        <time>2020-09-12T11:40:13Z</time>
      </trkpt>
      <trkpt lat="44.81549" lon="4.24386">
        <ele>1467.11</ele>
        <time>2020-09-12T11:40:36Z</time>
      </trkpt>
      <trkpt lat="44.81526" lon="4.24382">
        <ele>1468.55</ele>
        <time>2020-09-12T11:40:54Z</time>
      </trkpt>
      <trkpt lat="44.81504" lon="4.2438">
        <ele>1469.51</ele>
        <time>2020-09-12T11:41:12Z</time>
      </trkpt>
      <trkpt lat="44.8148" lon="4.24381">
        <ele>1470.47</ele>
        <time>2020-09-12T11:41:33Z</time>
      </trkpt>
      <trkpt lat="44.81457" lon="4.24386">
        <ele>1471.44</ele>
        <time>2020-09-12T11:41:55Z</time>
      </trkpt>
      <trkpt lat="44.81434" lon="4.24385">
        <ele>1472.4</ele>
        <time>2020-09-12T11:42:19Z</time>
      </trkpt>
      <trkpt lat="44.81425" lon="4.24386">
        <ele>1472.88</ele>
        <time>2020-09-12T11:42:30Z</time>
      </trkpt>
      <trkpt lat="44.81407" lon="4.2438">
        <ele>1473.84</ele>
        <time>2020-09-12T11:42:45Z</time>
      </trkpt>
      <trkpt lat="44.81387" lon="4.2438">
        <ele>1475.28</ele>
        <time>2020-09-12T11:43:03Z</time>
      </trkpt>
      <trkpt lat="44.81367" lon="4.24385">
        <ele>1475.76</ele>
        <time>2020-09-12T11:43:20Z</time>
      </trkpt>
      <trkpt lat="44.81353" lon="4.24394">
        <ele>1476.24</ele>
        <time>2020-09-12T11:43:34Z</time>
      </trkpt>
      <trkpt lat="44.81338" lon="4.24409">
        <ele>1477.68</ele>
        <time>2020-09-12T11:43:50Z</time>
      </trkpt>
      <trkpt lat="44.81331" lon="4.24426">
        <ele>1478.16</ele>
        <time>2020-09-12T11:44:07Z</time>
      </trkpt>
      <trkpt lat="44.8132" lon="4.24434">
        <ele>1478.16</ele>
        <time>2020-09-12T11:44:29Z</time>
      </trkpt>
      <trkpt lat="44.81319" lon="4.24433">
        <ele>1478.16</ele>
        <time>2020-09-12T11:44:50Z</time>
      </trkpt>
      <trkpt lat="44.81319" lon="4.24434">
        <ele>1477.68</ele>
        <time>2020-09-12T11:45:15Z</time>
      </trkpt>
      <trkpt lat="44.8132" lon="4.24432">
        <ele>1477.68</ele>
        <time>2020-09-12T11:45:39Z</time>
      </trkpt>
      <trkpt lat="44.81318" lon="4.24429">
        <ele>1477.68</ele>
        <time>2020-09-12T11:45:56Z</time>
      </trkpt>
      <trkpt lat="44.81298" lon="4.24415">
        <ele>1477.2</ele>
        <time>2020-09-12T11:46:15Z</time>
      </trkpt>
      <trkpt lat="44.8128" lon="4.24404">
        <ele>1476.72</ele>
        <time>2020-09-12T11:46:34Z</time>
      </trkpt>
      <trkpt lat="44.81264" lon="4.24395">
        <ele>1475.76</ele>
        <time>2020-09-12T11:46:51Z</time>
      </trkpt>
      <trkpt lat="44.81262" lon="4.24396">
        <ele>1475.28</ele>
        <time>2020-09-12T11:47:10Z</time>
      </trkpt>
      <trkpt lat="44.81262" lon="4.24395">
        <ele>1476.24</ele>
        <time>2020-09-12T11:47:28Z</time>
      </trkpt>
      <trkpt lat="44.81257" lon="4.24393">
        <ele>1475.76</ele>
        <time>2020-09-12T11:47:32Z</time>
      </trkpt>
      <trkpt lat="44.81237" lon="4.24379">
        <ele>1475.76</ele>
        <time>2020-09-12T11:47:49Z</time>
      </trkpt>
      <trkpt lat="44.81215" lon="4.24372">
        <ele>1475.28</ele>
        <time>2020-09-12T11:48:07Z</time>
      </trkpt>
      <trkpt lat="44.81199" lon="4.24368">
        <ele>1475.28</ele>
        <time>2020-09-12T11:48:21Z</time>
      </trkpt>
      <trkpt lat="44.81179" lon="4.24359">
        <ele>1474.8</ele>
        <time>2020-09-12T11:48:38Z</time>
      </trkpt>
      <trkpt lat="44.81159" lon="4.24353">
        <ele>1473.84</ele>
        <time>2020-09-12T11:48:56Z</time>
      </trkpt>
      <trkpt lat="44.81151" lon="4.24351">
        <ele>1473.36</ele>
        <time>2020-09-12T11:49:17Z</time>
      </trkpt>
      <trkpt lat="44.81135" lon="4.24341">
        <ele>1473.36</ele>
        <time>2020-09-12T11:49:38Z</time>
      </trkpt>
      <trkpt lat="44.81122" lon="4.24334">
        <ele>1472.88</ele>
        <time>2020-09-12T11:50:01Z</time>
      </trkpt>
      <trkpt lat="44.8111" lon="4.24327">
        <ele>1472.88</ele>
        <time>2020-09-12T11:50:19Z</time>
      </trkpt>
      <trkpt lat="44.81107" lon="4.24326">
        <ele>1473.36</ele>
        <time>2020-09-12T11:50:23Z</time>
      </trkpt>
      <trkpt lat="44.81094" lon="4.24316">
        <ele>1472.88</ele>
        <time>2020-09-12T11:50:38Z</time>
      </trkpt>
      <trkpt lat="44.81077" lon="4.243">
        <ele>1472.88</ele>
        <time>2020-09-12T11:50:57Z</time>
      </trkpt>
      <trkpt lat="44.81063" lon="4.24281">
        <ele>1472.4</ele>
        <time>2020-09-12T11:51:22Z</time>
      </trkpt>
      <trkpt lat="44.81051" lon="4.24263">
        <ele>1472.88</ele>
        <time>2020-09-12T11:51:47Z</time>
      </trkpt>
      <trkpt lat="44.8105" lon="4.24262">
        <ele>1472.88</ele>
        <time>2020-09-12T11:52:17Z</time>
      </trkpt>
      <trkpt lat="44.8105" lon="4.24262">
        <ele>1472.88</ele>
        <time>2020-09-12T11:52:43Z</time>
      </trkpt>
      <trkpt lat="44.8105" lon="4.24262">
        <ele>1472.88</ele>
        <time>2020-09-12T11:53:13Z</time>
      </trkpt>
      <trkpt lat="44.81051" lon="4.24262">
        <ele>1472.88</ele>
        <time>2020-09-12T11:53:40Z</time>
      </trkpt>
      <trkpt lat="44.81049" lon="4.24254">
        <ele>1472.88</ele>
        <time>2020-09-12T11:53:58Z</time>
      </trkpt>
      <trkpt lat="44.8105" lon="4.24265">
        <ele>1472.4</ele>
        <time>2020-09-12T11:54:17Z</time>
      </trkpt>
      <trkpt lat="44.81049" lon="4.24263">
        <ele>1472.4</ele>
        <time>2020-09-12T11:54:41Z</time>
      </trkpt>
      <trkpt lat="44.81043" lon="4.24272">
        <ele>1472.4</ele>
        <time>2020-09-12T11:55:07Z</time>
      </trkpt>
      <trkpt lat="44.81042" lon="4.24272">
        <ele>1472.4</ele>
        <time>2020-09-12T11:55:08Z</time>
      </trkpt>
      <trkpt lat="44.81032" lon="4.24271">
        <ele>1471.92</ele>
        <time>2020-09-12T11:55:18Z</time>
      </trkpt>
      <trkpt lat="44.81031" lon="4.24257">
        <ele>1471.44</ele>
        <time>2020-09-12T11:55:29Z</time>
      </trkpt>
      <trkpt lat="44.81035" lon="4.24232">
        <ele>1471.44</ele>
        <time>2020-09-12T11:55:47Z</time>
      </trkpt>
      <trkpt lat="44.8104" lon="4.24218">
        <ele>1471.44</ele>
        <time>2020-09-12T11:56:06Z</time>
      </trkpt>
      <trkpt lat="44.81047" lon="4.24203">
        <ele>1471.44</ele>
        <time>2020-09-12T11:56:24Z</time>
      </trkpt>
      <trkpt lat="44.81048" lon="4.24201">
        <ele>1471.44</ele>
        <time>2020-09-12T11:56:26Z</time>
      </trkpt>
      <trkpt lat="44.81061" lon="4.24179">
        <ele>1471.92</ele>
        <time>2020-09-12T11:56:47Z</time>
      </trkpt>
      <trkpt lat="44.81074" lon="4.24164">
        <ele>1472.4</ele>
        <time>2020-09-12T11:57:07Z</time>
      </trkpt>
      <trkpt lat="44.81082" lon="4.24144">
        <ele>1470.95</ele>
        <time>2020-09-12T11:57:27Z</time>
      </trkpt>
      <trkpt lat="44.81084" lon="4.24137">
        <ele>1469.51</ele>
        <time>2020-09-12T11:57:47Z</time>
      </trkpt>
      <trkpt lat="44.81084" lon="4.24138">
        <ele>1469.51</ele>
        <time>2020-09-12T11:58:17Z</time>
      </trkpt>
      <trkpt lat="44.81078" lon="4.2413">
        <ele>1468.55</ele>
        <time>2020-09-12T11:58:44Z</time>
      </trkpt>
      <trkpt lat="44.81074" lon="4.24128">
        <ele>1467.59</ele>
        <time>2020-09-12T11:58:48Z</time>
      </trkpt>
      <trkpt lat="44.81061" lon="4.24122">
        <ele>1464.71</ele>
        <time>2020-09-12T11:59:04Z</time>
      </trkpt>
      <trkpt lat="44.81048" lon="4.24121">
        <ele>1461.82</ele>
        <time>2020-09-12T11:59:19Z</time>
      </trkpt>
      <trkpt lat="44.81045" lon="4.2412">
        <ele>1461.82</ele>
        <time>2020-09-12T11:59:22Z</time>
      </trkpt>
      <trkpt lat="44.81027" lon="4.24109">
        <ele>1457.98</ele>
        <time>2020-09-12T11:59:40Z</time>
      </trkpt>
      <trkpt lat="44.81009" lon="4.24102">
        <ele>1455.09</ele>
        <time>2020-09-12T11:59:57Z</time>
      </trkpt>
      <trkpt lat="44.80995" lon="4.24096">
        <ele>1453.65</ele>
        <time>2020-09-12T12:00:13Z</time>
      </trkpt>
      <trkpt lat="44.80973" lon="4.2409">
        <ele>1451.73</ele>
        <time>2020-09-12T12:00:33Z</time>
      </trkpt>
      <trkpt lat="44.80956" lon="4.24084">
        <ele>1449.32</ele>
        <time>2020-09-12T12:00:50Z</time>
      </trkpt>
      <trkpt lat="44.80939" lon="4.24077">
        <ele>1447.4</ele>
        <time>2020-09-12T12:01:06Z</time>
      </trkpt>
      <trkpt lat="44.80917" lon="4.24069">
        <ele>1445</ele>
        <time>2020-09-12T12:01:26Z</time>
      </trkpt>
      <trkpt lat="44.80901" lon="4.24063">
        <ele>1443.08</ele>
        <time>2020-09-12T12:01:42Z</time>
      </trkpt>
      <trkpt lat="44.80875" lon="4.24052">
        <ele>1441.63</ele>
        <time>2020-09-12T12:02:05Z</time>
      </trkpt>
      <trkpt lat="44.80857" lon="4.24044">
        <ele>1440.19</ele>
        <time>2020-09-12T12:02:25Z</time>
      </trkpt>
      <trkpt lat="44.80833" lon="4.24035">
        <ele>1438.27</ele>
        <time>2020-09-12T12:02:46Z</time>
      </trkpt>
      <trkpt lat="44.80828" lon="4.24035">
        <ele>1437.79</ele>
        <time>2020-09-12T12:02:51Z</time>
      </trkpt>
      <trkpt lat="44.80815" lon="4.24029">
        <ele>1436.83</ele>
        <time>2020-09-12T12:03:08Z</time>
      </trkpt>
      <trkpt lat="44.8081" lon="4.2403">
        <ele>1436.35</ele>
        <time>2020-09-12T12:03:28Z</time>
      </trkpt>
      <trkpt lat="44.80804" lon="4.24028">
        <ele>1436.83</ele>
        <time>2020-09-12T12:04:00Z</time>
      </trkpt>
      <trkpt lat="44.80784" lon="4.24021">
        <ele>1435.87</ele>
        <time>2020-09-12T12:04:21Z</time>
      </trkpt>
      <trkpt lat="44.80765" lon="4.24015">
        <ele>1435.39</ele>
        <time>2020-09-12T12:04:40Z</time>
      </trkpt>
      <trkpt lat="44.80745" lon="4.24007">
        <ele>1435.39</ele>
        <time>2020-09-12T12:04:58Z</time>
      </trkpt>
      <trkpt lat="44.80721" lon="4.23999">
        <ele>1435.39</ele>
        <time>2020-09-12T12:05:20Z</time>
      </trkpt>
      <trkpt lat="44.80705" lon="4.23995">
        <ele>1435.39</ele>
        <time>2020-09-12T12:05:39Z</time>
      </trkpt>
      <trkpt lat="44.80704" lon="4.23995">
        <ele>1435.39</ele>
        <time>2020-09-12T12:05:40Z</time>
      </trkpt>
      <trkpt lat="44.80685" lon="4.2399">
        <ele>1434.91</ele>
        <time>2020-09-12T12:05:59Z</time>
      </trkpt>
      <trkpt lat="44.80663" lon="4.23985">
        <ele>1433.94</ele>
        <time>2020-09-12T12:06:18Z</time>
      </trkpt>
      <trkpt lat="44.80639" lon="4.23984">
        <ele>1432.5</ele>
        <time>2020-09-12T12:06:40Z</time>
      </trkpt>
      <trkpt lat="44.80615" lon="4.23983">
        <ele>1431.54</ele>
        <time>2020-09-12T12:07:00Z</time>
      </trkpt>
      <trkpt lat="44.80596" lon="4.23992">
        <ele>1430.58</ele>
        <time>2020-09-12T12:07:19Z</time>
      </trkpt>
      <trkpt lat="44.80578" lon="4.24002">
        <ele>1429.62</ele>
        <time>2020-09-12T12:07:37Z</time>
      </trkpt>
      <trkpt lat="44.80556" lon="4.24">
        <ele>1428.18</ele>
        <time>2020-09-12T12:07:58Z</time>
      </trkpt>
      <trkpt lat="44.8054" lon="4.23997">
        <ele>1425.77</ele>
        <time>2020-09-12T12:08:15Z</time>
      </trkpt>
      <trkpt lat="44.80531" lon="4.23985">
        <ele>1422.89</ele>
        <time>2020-09-12T12:08:30Z</time>
      </trkpt>
      <trkpt lat="44.80516" lon="4.23988">
        <ele>1420.97</ele>
        <time>2020-09-12T12:08:52Z</time>
      </trkpt>
      <trkpt lat="44.80503" lon="4.23994">
        <ele>1419.04</ele>
        <time>2020-09-12T12:09:07Z</time>
      </trkpt>
      <trkpt lat="44.80495" lon="4.23996">
        <ele>1417.6</ele>
        <time>2020-09-12T12:09:24Z</time>
      </trkpt>
      <trkpt lat="44.80478" lon="4.23997">
        <ele>1415.2</ele>
        <time>2020-09-12T12:09:43Z</time>
      </trkpt>
      <trkpt lat="44.8046" lon="4.24003">
        <ele>1412.79</ele>
        <time>2020-09-12T12:10:01Z</time>
      </trkpt>
      <trkpt lat="44.80438" lon="4.24015">
        <ele>1410.39</ele>
        <time>2020-09-12T12:10:22Z</time>
      </trkpt>
      <trkpt lat="44.80416" lon="4.24023">
        <ele>1408.95</ele>
        <time>2020-09-12T12:10:42Z</time>
      </trkpt>
      <trkpt lat="44.80393" lon="4.24022">
        <ele>1406.07</ele>
        <time>2020-09-12T12:11:03Z</time>
      </trkpt>
      <trkpt lat="44.80372" lon="4.24022">
        <ele>1403.66</ele>
        <time>2020-09-12T12:11:23Z</time>
      </trkpt>
      <trkpt lat="44.80359" lon="4.24021">
        <ele>1401.74</ele>
        <time>2020-09-12T12:11:39Z</time>
      </trkpt>
      <trkpt lat="44.80348" lon="4.2402">
        <ele>1399.34</ele>
        <time>2020-09-12T12:11:57Z</time>
      </trkpt>
      <trkpt lat="44.80336" lon="4.24022">
        <ele>1397.41</ele>
        <time>2020-09-12T12:12:16Z</time>
      </trkpt>
      <trkpt lat="44.80333" lon="4.24024">
        <ele>1396.45</ele>
        <time>2020-09-12T12:12:20Z</time>
      </trkpt>
      <trkpt lat="44.80319" lon="4.24027">
        <ele>1394.05</ele>
        <time>2020-09-12T12:12:39Z</time>
      </trkpt>
      <trkpt lat="44.80317" lon="4.24027">
        <ele>1394.05</ele>
        <time>2020-09-12T12:12:41Z</time>
      </trkpt>
      <trkpt lat="44.80305" lon="4.24032">
        <ele>1390.68</ele>
        <time>2020-09-12T12:12:54Z</time>
      </trkpt>
      <trkpt lat="44.80307" lon="4.24032">
        <ele>1389.72</ele>
        <time>2020-09-12T12:13:12Z</time>
      </trkpt>
      <trkpt lat="44.80306" lon="4.24031">
        <ele>1389.72</ele>
        <time>2020-09-12T12:14:15Z</time>
      </trkpt>
      <trkpt lat="44.80304" lon="4.24032">
        <ele>1389.72</ele>
        <time>2020-09-12T12:15:46Z</time>
      </trkpt>
      <trkpt lat="44.803" lon="4.24031">
        <ele>1389.72</ele>
        <time>2020-09-12T12:15:50Z</time>
      </trkpt>
      <trkpt lat="44.8028" lon="4.24024">
        <ele>1386.84</ele>
        <time>2020-09-12T12:16:07Z</time>
      </trkpt>
      <trkpt lat="44.80273" lon="4.24018">
        <ele>1384.92</ele>
        <time>2020-09-12T12:16:25Z</time>
      </trkpt>
      <trkpt lat="44.80274" lon="4.24016">
        <ele>1385.4</ele>
        <time>2020-09-12T12:16:48Z</time>
      </trkpt>
      <trkpt lat="44.80272" lon="4.24016">
        <ele>1384.92</ele>
        <time>2020-09-12T12:17:16Z</time>
      </trkpt>
      <trkpt lat="44.80272" lon="4.24014">
        <ele>1385.4</ele>
        <time>2020-09-12T12:17:48Z</time>
      </trkpt>
      <trkpt lat="44.80272" lon="4.24016">
        <ele>1385.4</ele>
        <time>2020-09-12T12:18:18Z</time>
      </trkpt>
      <trkpt lat="44.80273" lon="4.24015">
        <ele>1385.4</ele>
        <time>2020-09-12T12:18:49Z</time>
      </trkpt>
      <trkpt lat="44.80273" lon="4.24016">
        <ele>1385.4</ele>
        <time>2020-09-12T12:19:20Z</time>
      </trkpt>
      <trkpt lat="44.80275" lon="4.24016">
        <ele>1385.4</ele>
        <time>2020-09-12T12:19:50Z</time>
      </trkpt>
      <trkpt lat="44.80275" lon="4.24016">
        <ele>1385.4</ele>
        <time>2020-09-12T12:20:19Z</time>
      </trkpt>
      <trkpt lat="44.80273" lon="4.24018">
        <ele>1385.4</ele>
        <time>2020-09-12T12:20:52Z</time>
      </trkpt>
      <trkpt lat="44.80274" lon="4.24017">
        <ele>1385.4</ele>
        <time>2020-09-12T12:21:26Z</time>
      </trkpt>
      <trkpt lat="44.80274" lon="4.24017">
        <ele>1385.4</ele>
        <time>2020-09-12T12:21:58Z</time>
      </trkpt>
      <trkpt lat="44.80275" lon="4.24016">
        <ele>1385.4</ele>
        <time>2020-09-12T12:22:32Z</time>
      </trkpt>
      <trkpt lat="44.80275" lon="4.24017">
        <ele>1385.4</ele>
        <time>2020-09-12T12:23:07Z</time>
      </trkpt>
      <trkpt lat="44.80275" lon="4.24016">
        <ele>1385.4</ele>
        <time>2020-09-12T12:23:34Z</time>
      </trkpt>
      <trkpt lat="44.80274" lon="4.24016">
        <ele>1385.4</ele>
        <time>2020-09-12T12:24:27Z</time>
      </trkpt>
      <trkpt lat="44.80273" lon="4.24016">
        <ele>1385.4</ele>
        <time>2020-09-12T12:25:05Z</time>
      </trkpt>
      <trkpt lat="44.80274" lon="4.24015">
        <ele>1385.4</ele>
        <time>2020-09-12T12:25:41Z</time>
      </trkpt>
      <trkpt lat="44.80274" lon="4.24017">
        <ele>1385.4</ele>
        <time>2020-09-12T12:26:12Z</time>
      </trkpt>
      <trkpt lat="44.80273" lon="4.24016">
        <ele>1385.4</ele>
        <time>2020-09-12T12:26:48Z</time>
      </trkpt>
      <trkpt lat="44.80269" lon="4.24024">
        <ele>1385.4</ele>
        <time>2020-09-12T12:27:08Z</time>
      </trkpt>
      <trkpt lat="44.80257" lon="4.24018">
        <ele>1383.47</ele>
        <time>2020-09-12T12:27:24Z</time>
      </trkpt>
      <trkpt lat="44.80244" lon="4.24013">
        <ele>1381.55</ele>
        <time>2020-09-12T12:27:46Z</time>
      </trkpt>
      <trkpt lat="44.80238" lon="4.24012">
        <ele>1380.59</ele>
        <time>2020-09-12T12:27:56Z</time>
      </trkpt>
      <trkpt lat="44.80236" lon="4.24012">
        <ele>1380.59</ele>
        <time>2020-09-12T12:27:58Z</time>
      </trkpt>
      <trkpt lat="44.80219" lon="4.2401">
        <ele>1378.19</ele>
        <time>2020-09-12T12:28:14Z</time>
      </trkpt>
      <trkpt lat="44.8021" lon="4.24012">
        <ele>1376.75</ele>
        <time>2020-09-12T12:28:23Z</time>
      </trkpt>
      <trkpt lat="44.80194" lon="4.24003">
        <ele>1373.86</ele>
        <time>2020-09-12T12:28:42Z</time>
      </trkpt>
      <trkpt lat="44.80182" lon="4.23997">
        <ele>1371.46</ele>
        <time>2020-09-12T12:28:55Z</time>
      </trkpt>
      <trkpt lat="44.80169" lon="4.23986">
        <ele>1368.57</ele>
        <time>2020-09-12T12:29:14Z</time>
      </trkpt>
      <trkpt lat="44.80166" lon="4.2398">
        <ele>1367.61</ele>
        <time>2020-09-12T12:29:20Z</time>
      </trkpt>
      <trkpt lat="44.80161" lon="4.23975">
        <ele>1366.17</ele>
        <time>2020-09-12T12:29:27Z</time>
      </trkpt>
      <trkpt lat="44.80149" lon="4.23963">
        <ele>1363.29</ele>
        <time>2020-09-12T12:29:44Z</time>
      </trkpt>
      <trkpt lat="44.80137" lon="4.23956">
        <ele>1361.36</ele>
        <time>2020-09-12T12:30:00Z</time>
      </trkpt>
      <trkpt lat="44.80123" lon="4.23955">
        <ele>1358.96</ele>
        <time>2020-09-12T12:30:19Z</time>
      </trkpt>
      <trkpt lat="44.80108" lon="4.2395">
        <ele>1358</ele>
        <time>2020-09-12T12:30:40Z</time>
      </trkpt>
      <trkpt lat="44.80091" lon="4.23944">
        <ele>1357.04</ele>
        <time>2020-09-12T12:31:00Z</time>
      </trkpt>
      <trkpt lat="44.80071" lon="4.23943">
        <ele>1356.56</ele>
        <time>2020-09-12T12:31:24Z</time>
      </trkpt>
      <trkpt lat="44.80064" lon="4.23943">
        <ele>1356.56</ele>
        <time>2020-09-12T12:31:47Z</time>
      </trkpt>
      <trkpt lat="44.80066" lon="4.23942">
        <ele>1355.6</ele>
        <time>2020-09-12T12:32:12Z</time>
      </trkpt>
      <trkpt lat="44.80065" lon="4.23941">
        <ele>1355.6</ele>
        <time>2020-09-12T12:32:41Z</time>
      </trkpt>
      <trkpt lat="44.80066" lon="4.23944">
        <ele>1356.56</ele>
        <time>2020-09-12T12:33:14Z</time>
      </trkpt>
      <trkpt lat="44.80066" lon="4.23944">
        <ele>1356.08</ele>
        <time>2020-09-12T12:33:47Z</time>
      </trkpt>
      <trkpt lat="44.8006" lon="4.23941">
        <ele>1356.56</ele>
        <time>2020-09-12T12:34:15Z</time>
      </trkpt>
      <trkpt lat="44.80057" lon="4.23934">
        <ele>1356.08</ele>
        <time>2020-09-12T12:34:21Z</time>
      </trkpt>
      <trkpt lat="44.80046" lon="4.23913">
        <ele>1356.08</ele>
        <time>2020-09-12T12:34:40Z</time>
      </trkpt>
      <trkpt lat="44.80037" lon="4.23897">
        <ele>1355.12</ele>
        <time>2020-09-12T12:34:57Z</time>
      </trkpt>
      <trkpt lat="44.80023" lon="4.23874">
        <ele>1354.63</ele>
        <time>2020-09-12T12:35:17Z</time>
      </trkpt>
      <trkpt lat="44.80006" lon="4.23845">
        <ele>1353.19</ele>
        <time>2020-09-12T12:35:40Z</time>
      </trkpt>
      <trkpt lat="44.79993" lon="4.23817">
        <ele>1352.71</ele>
        <time>2020-09-12T12:36:01Z</time>
      </trkpt>
      <trkpt lat="44.7998" lon="4.23789">
        <ele>1351.75</ele>
        <time>2020-09-12T12:36:22Z</time>
      </trkpt>
      <trkpt lat="44.79969" lon="4.23765">
        <ele>1350.79</ele>
        <time>2020-09-12T12:36:41Z</time>
      </trkpt>
      <trkpt lat="44.79966" lon="4.23759">
        <ele>1350.79</ele>
        <time>2020-09-12T12:36:48Z</time>
      </trkpt>
      <trkpt lat="44.79949" lon="4.23736">
        <ele>1349.83</ele>
        <time>2020-09-12T12:37:09Z</time>
      </trkpt>
      <trkpt lat="44.79932" lon="4.23707">
        <ele>1347.91</ele>
        <time>2020-09-12T12:37:32Z</time>
      </trkpt>
      <trkpt lat="44.79916" lon="4.2368">
        <ele>1346.46</ele>
        <time>2020-09-12T12:37:53Z</time>
      </trkpt>
      <trkpt lat="44.79899" lon="4.23648">
        <ele>1345.02</ele>
        <time>2020-09-12T12:38:16Z</time>
      </trkpt>
      <trkpt lat="44.79889" lon="4.23624">
        <ele>1344.06</ele>
        <time>2020-09-12T12:38:35Z</time>
      </trkpt>
      <trkpt lat="44.79879" lon="4.23593">
        <ele>1343.58</ele>
        <time>2020-09-12T12:38:53Z</time>
      </trkpt>
      <trkpt lat="44.79872" lon="4.23574">
        <ele>1342.14</ele>
        <time>2020-09-12T12:39:11Z</time>
      </trkpt>
      <trkpt lat="44.79862" lon="4.23555">
        <ele>1340.7</ele>
        <time>2020-09-12T12:39:29Z</time>
      </trkpt>
      <trkpt lat="44.79861" lon="4.23553">
        <ele>1340.7</ele>
        <time>2020-09-12T12:39:31Z</time>
      </trkpt>
      <trkpt lat="44.79851" lon="4.23528">
        <ele>1339.25</ele>
        <time>2020-09-12T12:39:50Z</time>
      </trkpt>
      <trkpt lat="44.7984" lon="4.23499">
        <ele>1337.33</ele>
        <time>2020-09-12T12:40:09Z</time>
      </trkpt>
      <trkpt lat="44.7982" lon="4.23479">
        <ele>1335.89</ele>
        <time>2020-09-12T12:40:30Z</time>
      </trkpt>
      <trkpt lat="44.79801" lon="4.23461">
        <ele>1334.93</ele>
        <time>2020-09-12T12:40:50Z</time>
      </trkpt>
      <trkpt lat="44.79783" lon="4.23446">
        <ele>1333.97</ele>
        <time>2020-09-12T12:41:08Z</time>
      </trkpt>
      <trkpt lat="44.7977" lon="4.23434">
        <ele>1333.01</ele>
        <time>2020-09-12T12:41:23Z</time>
      </trkpt>
      <trkpt lat="44.79753" lon="4.23414">
        <ele>1333.01</ele>
        <time>2020-09-12T12:41:42Z</time>
      </trkpt>
      <trkpt lat="44.79735" lon="4.23389">
        <ele>1333.49</ele>
        <time>2020-09-12T12:42:02Z</time>
      </trkpt>
      <trkpt lat="44.79719" lon="4.23364">
        <ele>1333.01</ele>
        <time>2020-09-12T12:42:22Z</time>
      </trkpt>
      <trkpt lat="44.79706" lon="4.23344">
        <ele>1332.52</ele>
        <time>2020-09-12T12:42:40Z</time>
      </trkpt>
      <trkpt lat="44.79688" lon="4.23317">
        <ele>1333.01</ele>
        <time>2020-09-12T12:43:02Z</time>
      </trkpt>
      <trkpt lat="44.79677" lon="4.23298">
        <ele>1333.97</ele>
        <time>2020-09-12T12:43:18Z</time>
      </trkpt>
      <trkpt lat="44.79663" lon="4.23277">
        <ele>1334.93</ele>
        <time>2020-09-12T12:43:36Z</time>
      </trkpt>
      <trkpt lat="44.79649" lon="4.23257">
        <ele>1336.37</ele>
        <time>2020-09-12T12:43:54Z</time>
      </trkpt>
      <trkpt lat="44.79637" lon="4.23236">
        <ele>1337.81</ele>
        <time>2020-09-12T12:44:12Z</time>
      </trkpt>
      <trkpt lat="44.79625" lon="4.23216">
        <ele>1339.25</ele>
        <time>2020-09-12T12:44:30Z</time>
      </trkpt>
      <trkpt lat="44.79607" lon="4.23187">
        <ele>1341.18</ele>
        <time>2020-09-12T12:44:52Z</time>
      </trkpt>
      <trkpt lat="44.79593" lon="4.23165">
        <ele>1342.62</ele>
        <time>2020-09-12T12:45:10Z</time>
      </trkpt>
      <trkpt lat="44.7958" lon="4.23141">
        <ele>1343.58</ele>
        <time>2020-09-12T12:45:28Z</time>
      </trkpt>
      <trkpt lat="44.79565" lon="4.23117">
        <ele>1344.54</ele>
        <time>2020-09-12T12:45:48Z</time>
      </trkpt>
      <trkpt lat="44.7955" lon="4.23093">
        <ele>1345.02</ele>
        <time>2020-09-12T12:46:07Z</time>
      </trkpt>
      <trkpt lat="44.79532" lon="4.23069">
        <ele>1345.02</ele>
        <time>2020-09-12T12:46:28Z</time>
      </trkpt>
      <trkpt lat="44.7951" lon="4.23052">
        <ele>1345.5</ele>
        <time>2020-09-12T12:46:51Z</time>
      </trkpt>
      <trkpt lat="44.79508" lon="4.2305">
        <ele>1345.5</ele>
        <time>2020-09-12T12:46:53Z</time>
      </trkpt>
      <trkpt lat="44.79504" lon="4.23047">
        <ele>1345.98</ele>
        <time>2020-09-12T12:46:57Z</time>
      </trkpt>
      <trkpt lat="44.79486" lon="4.23029">
        <ele>1345.5</ele>
        <time>2020-09-12T12:47:16Z</time>
      </trkpt>
      <trkpt lat="44.79466" lon="4.23011">
        <ele>1345.5</ele>
        <time>2020-09-12T12:47:36Z</time>
      </trkpt>
      <trkpt lat="44.79446" lon="4.22997">
        <ele>1345.02</ele>
        <time>2020-09-12T12:47:55Z</time>
      </trkpt>
      <trkpt lat="44.79442" lon="4.22994">
        <ele>1345.02</ele>
        <time>2020-09-12T12:48:19Z</time>
      </trkpt>
      <trkpt lat="44.79441" lon="4.22991">
        <ele>1345.02</ele>
        <time>2020-09-12T12:48:47Z</time>
      </trkpt>
      <trkpt lat="44.7944" lon="4.22992">
        <ele>1344.54</ele>
        <time>2020-09-12T12:49:17Z</time>
      </trkpt>
      <trkpt lat="44.79441" lon="4.22992">
        <ele>1344.54</ele>
        <time>2020-09-12T12:49:45Z</time>
      </trkpt>
      <trkpt lat="44.79439" lon="4.22992">
        <ele>1344.54</ele>
        <time>2020-09-12T12:50:17Z</time>
      </trkpt>
      <trkpt lat="44.79439" lon="4.22994">
        <ele>1344.54</ele>
        <time>2020-09-12T12:50:56Z</time>
      </trkpt>
      <trkpt lat="44.79439" lon="4.22994">
        <ele>1344.54</ele>
        <time>2020-09-12T12:51:26Z</time>
      </trkpt>
      <trkpt lat="44.7944" lon="4.22992">
        <ele>1344.54</ele>
        <time>2020-09-12T12:52:01Z</time>
      </trkpt>
      <trkpt lat="44.7944" lon="4.22992">
        <ele>1344.54</ele>
        <time>2020-09-12T12:52:38Z</time>
      </trkpt>
      <trkpt lat="44.79438" lon="4.22992">
        <ele>1344.54</ele>
        <time>2020-09-12T12:53:08Z</time>
      </trkpt>
      <trkpt lat="44.79441" lon="4.22992">
        <ele>1344.54</ele>
        <time>2020-09-12T12:53:38Z</time>
      </trkpt>
      <trkpt lat="44.79439" lon="4.22993">
        <ele>1344.54</ele>
        <time>2020-09-12T12:54:11Z</time>
      </trkpt>
      <trkpt lat="44.79437" lon="4.22989">
        <ele>1344.54</ele>
        <time>2020-09-12T12:54:38Z</time>
      </trkpt>
      <trkpt lat="44.79415" lon="4.22973">
        <ele>1345.02</ele>
        <time>2020-09-12T12:54:56Z</time>
      </trkpt>
      <trkpt lat="44.79395" lon="4.22969">
        <ele>1345.02</ele>
        <time>2020-09-12T12:55:13Z</time>
      </trkpt>
      <trkpt lat="44.79372" lon="4.22976">
        <ele>1344.54</ele>
        <time>2020-09-12T12:55:32Z</time>
      </trkpt>
      <trkpt lat="44.79349" lon="4.22982">
        <ele>1343.58</ele>
        <time>2020-09-12T12:55:51Z</time>
      </trkpt>
      <trkpt lat="44.79324" lon="4.22977">
        <ele>1342.62</ele>
        <time>2020-09-12T12:56:13Z</time>
      </trkpt>
      <trkpt lat="44.79302" lon="4.22966">
        <ele>1341.18</ele>
        <time>2020-09-12T12:56:32Z</time>
      </trkpt>
      <trkpt lat="44.79299" lon="4.22965">
        <ele>1341.18</ele>
        <time>2020-09-12T12:56:35Z</time>
      </trkpt>
      <trkpt lat="44.79295" lon="4.22962">
        <ele>1341.18</ele>
        <time>2020-09-12T12:56:39Z</time>
      </trkpt>
      <trkpt lat="44.79278" lon="4.22954">
        <ele>1340.22</ele>
        <time>2020-09-12T12:56:59Z</time>
      </trkpt>
      <trkpt lat="44.79277" lon="4.22952">
        <ele>1340.22</ele>
        <time>2020-09-12T12:57:01Z</time>
      </trkpt>
      <trkpt lat="44.79256" lon="4.22938">
        <ele>1338.77</ele>
        <time>2020-09-12T12:57:22Z</time>
      </trkpt>
      <trkpt lat="44.7924" lon="4.22927">
        <ele>1337.33</ele>
        <time>2020-09-12T12:57:38Z</time>
      </trkpt>
      <trkpt lat="44.7922" lon="4.22914">
        <ele>1334.93</ele>
        <time>2020-09-12T12:57:59Z</time>
      </trkpt>
      <trkpt lat="44.79204" lon="4.22903">
        <ele>1333.01</ele>
        <time>2020-09-12T12:58:15Z</time>
      </trkpt>
      <trkpt lat="44.79185" lon="4.22888">
        <ele>1330.6</ele>
        <time>2020-09-12T12:58:34Z</time>
      </trkpt>
      <trkpt lat="44.79167" lon="4.22864">
        <ele>1328.68</ele>
        <time>2020-09-12T12:58:55Z</time>
      </trkpt>
      <trkpt lat="44.79155" lon="4.22839">
        <ele>1327.72</ele>
        <time>2020-09-12T12:59:13Z</time>
      </trkpt>
      <trkpt lat="44.79148" lon="4.22811">
        <ele>1326.76</ele>
        <time>2020-09-12T12:59:32Z</time>
      </trkpt>
      <trkpt lat="44.79143" lon="4.22797">
        <ele>1326.76</ele>
        <time>2020-09-12T12:59:43Z</time>
      </trkpt>
      <trkpt lat="44.79141" lon="4.2279">
        <ele>1326.76</ele>
        <time>2020-09-12T12:59:48Z</time>
      </trkpt>
      <trkpt lat="44.79133" lon="4.22761">
        <ele>1326.76</ele>
        <time>2020-09-12T13:00:06Z</time>
      </trkpt>
      <trkpt lat="44.79125" lon="4.22733">
        <ele>1327.24</ele>
        <time>2020-09-12T13:00:24Z</time>
      </trkpt>
      <trkpt lat="44.79121" lon="4.22717">
        <ele>1327.24</ele>
        <time>2020-09-12T13:00:33Z</time>
      </trkpt>
      <trkpt lat="44.79117" lon="4.22707">
        <ele>1327.24</ele>
        <time>2020-09-12T13:00:40Z</time>
      </trkpt>
      <trkpt lat="44.79109" lon="4.22675">
        <ele>1327.24</ele>
        <time>2020-09-12T13:01:00Z</time>
      </trkpt>
      <trkpt lat="44.79102" lon="4.22655">
        <ele>1327.24</ele>
        <time>2020-09-12T13:01:15Z</time>
      </trkpt>
      <trkpt lat="44.79093" lon="4.22626">
        <ele>1327.24</ele>
        <time>2020-09-12T13:01:33Z</time>
      </trkpt>
      <trkpt lat="44.79078" lon="4.22604">
        <ele>1326.76</ele>
        <time>2020-09-12T13:01:51Z</time>
      </trkpt>
      <trkpt lat="44.79066" lon="4.22584">
        <ele>1325.8</ele>
        <time>2020-09-12T13:02:08Z</time>
      </trkpt>
      <trkpt lat="44.79063" lon="4.22582">
        <ele>1325.8</ele>
        <time>2020-09-12T13:02:30Z</time>
      </trkpt>
      <trkpt lat="44.7907" lon="4.22581">
        <ele>1325.8</ele>
        <time>2020-09-12T13:02:36Z</time>
      </trkpt>
      <trkpt lat="44.79055" lon="4.2258">
        <ele>1325.31</ele>
        <time>2020-09-12T13:02:55Z</time>
      </trkpt>
      <trkpt lat="44.79053" lon="4.22578">
        <ele>1325.31</ele>
        <time>2020-09-12T13:02:57Z</time>
      </trkpt>
      <trkpt lat="44.79036" lon="4.22573">
        <ele>1324.83</ele>
        <time>2020-09-12T13:03:14Z</time>
      </trkpt>
      <trkpt lat="44.79028" lon="4.22572">
        <ele>1324.35</ele>
        <time>2020-09-12T13:03:23Z</time>
      </trkpt>
      <trkpt lat="44.79022" lon="4.22577">
        <ele>1323.39</ele>
        <time>2020-09-12T13:03:44Z</time>
      </trkpt>
      <trkpt lat="44.79021" lon="4.22569">
        <ele>1323.39</ele>
        <time>2020-09-12T13:03:50Z</time>
      </trkpt>
      <trkpt lat="44.79021" lon="4.22566">
        <ele>1323.39</ele>
        <time>2020-09-12T13:03:52Z</time>
      </trkpt>
      <trkpt lat="44.79023" lon="4.22549">
        <ele>1322.43</ele>
        <time>2020-09-12T13:04:06Z</time>
      </trkpt>
      <trkpt lat="44.79022" lon="4.22536">
        <ele>1320.51</ele>
        <time>2020-09-12T13:04:21Z</time>
      </trkpt>
      <trkpt lat="44.79007" lon="4.22535">
        <ele>1316.66</ele>
        <time>2020-09-12T13:05:09Z</time>
      </trkpt>
      <trkpt lat="44.79006" lon="4.22535">
        <ele>1316.66</ele>
        <time>2020-09-12T13:05:12Z</time>
      </trkpt>
    </trkseg>
  </trk>
</gpx>